BA2597 / G-DBCE 7700 Squawk Report (17th of March, 2019)

Aircraft A319 Reg No. G-DBCE Age 14 years old
Model A319 Jet engines 2 First flight 16-03-05
Registered 30-06-12 Rollout 03-05 Delivered 31-03-05
Construction No. 2429 Line No. N/A Series 131
ADSHEX 400B83 Airline name British Airways Owner Aercap Holdings N.V.
Airfield based Heathrow~Gtr London~G First tracked 2017-07-13 08:54:00

Flight history for G-DBCE

Route Flight No Date Playback
Gatwick (LGW) - Malaga (AGP) BA2718 2019-04-24 14:05:00
Jersey (JER) - Gatwick (LGW) BA2771 2019-04-24 09:59:00
Gatwick (LGW) - Jersey (JER) BA2770 2019-04-24 08:02:00
Cote D Azur (NCE) - Gatwick (LGW) BA2625 2019-04-23 17:29:00
Gatwick (LGW) - Cote D Azur (NCE) BA2624 2019-04-23 15:44:00
Schiphol (AMS) - Gatwick (LGW) BA2759 2019-04-23 10:12:00
Gatwick (LGW) - Schiphol (AMS) BA2758 2019-04-23 09:04:00
Malaga (AGP) - Gatwick (LGW) BA2721 2019-04-23 01:43:00
Gatwick (LGW) - Malaga (AGP) BA2720 2019-04-22 22:24:00
Schiphol (AMS) - Gatwick (LGW) BA2763 2019-04-22 19:34:00
Gatwick (LGW) - Schiphol (AMS) BA2762 2019-04-22 16:26:00
Jersey (JER) - Gatwick (LGW) BA2773 2019-04-22 13:50:00
Gatwick (LGW) - Jersey (JER) BA2772 2019-04-22 13:12:00
Glasgow (GLA) - Gatwick (LGW) BA2957 2019-04-22 11:09:00
Gatwick (LGW) - Glasgow (GLA) BA2956 2019-04-22 08:24:00
Sevilla (SVQ) - Gatwick (LGW) BA2799 2019-04-22 06:24:00
Gatwick (LGW) - Sevilla (SVQ) BA2798 2019-04-21 16:46:00
Jersey (JER) - Gatwick (LGW) BA2773 2019-04-21 14:12:00
Gatwick (LGW) - Jersey (JER) BA2772 2019-04-21 11:55:00
Jersey (JER) - Gatwick (LGW) BA2769 2019-04-21 08:37:00
Time Lat Lon Altitude Heading Speed Vertical Rate
2019-03-17 12:21:23 GMT 51.149151 -0.202857 0 75 17 0
2019-03-17 12:21:09 GMT 51.149014 -0.204045 0 78 13 0
2019-03-17 12:21:00 GMT 51.148865 -0.204792 0 78 11 0
2019-03-17 12:20:46 GMT 51.148769 -0.205536 0 78 4 0
2019-03-17 12:20:16 GMT 51.148758 -0.205688 0 75 0 0
2019-03-17 12:19:41 GMT 51.148769 -0.205688 0 75 0 0
2019-03-17 12:19:31 GMT 51.148762 -0.205697 0 75 0 0
2019-03-17 12:19:17 GMT 51.148773 -0.205697 0 75 0 0
2019-03-17 12:19:12 GMT 51.148769 -0.205688 0 75 0 0
2019-03-17 12:19:02 GMT 51.148758 -0.205688 0 75 0 0
2019-03-17 12:18:52 GMT 51.148769 -0.205688 0 75 0 0
2019-03-17 12:18:27 GMT 51.148785 -0.205708 0 75 0 0
2019-03-17 12:18:17 GMT 51.148785 -0.205688 0 75 0 0
2019-03-17 12:17:58 GMT 51.148769 -0.205688 0 75 0 0
2019-03-17 12:17:47 GMT 51.148712 -0.205688 0 75 7 0
2019-03-17 12:17:37 GMT 51.148758 -0.206146 0 42 9 0
2019-03-17 12:17:26 GMT 51.148235 -0.206470 0 334 13 0
2019-03-17 12:17:14 GMT 51.147823 -0.205047 0 284 22 0
2019-03-17 12:16:59 GMT 51.147526 -0.202751 0 284 28 0
2019-03-17 12:16:54 GMT 51.147186 -0.201626 0 281 30 0
2019-03-17 12:16:39 GMT 51.147160 -0.198329 0 261 38 0
2019-03-17 12:16:33 GMT 51.147205 -0.196715 0 258 48 0
2019-03-17 12:16:20 GMT 51.147778 -0.191593 0 258 66 0
2019-03-17 12:16:00 GMT 51.149597 -0.178833 325 258 117 -384
2019-03-17 12:15:51 GMT 51.150833 -0.171030 400 258 117 -512
2019-03-17 12:15:48 GMT 51.151321 -0.167847 450 259 116 -576
2019-03-17 12:15:38 GMT 51.152298 -0.160294 525 258 115 -448
2019-03-17 12:15:28 GMT 51.153397 -0.152101 650 258 114 -512
2019-03-17 12:15:17 GMT 51.154625 -0.142670 750 259 115 -576
2019-03-17 12:15:09 GMT 51.155594 -0.135176 850 258 117 -640
2019-03-17 12:14:58 GMT 51.156738 -0.127085 950 258 118 -768
2019-03-17 12:14:55 GMT 51.157150 -0.124339 1,000 258 117 -768
2019-03-17 12:14:47 GMT 51.158955 -0.112152 1,125 257 119 -576
2019-03-17 12:14:40 GMT 51.158955 -0.112152 1,150 259 120 -704
2019-03-17 12:14:35 GMT 51.159557 -0.106888 1,225 259 122 -640
2019-03-17 12:14:30 GMT 51.160400 -0.102589 1,275 259 120 -704
2019-03-17 12:14:24 GMT 51.160957 -0.097885 1,350 258 119 -640
2019-03-17 12:14:17 GMT 51.161888 -0.090942 1,425 259 116 -512
2019-03-17 12:14:14 GMT 51.161980 -0.089035 1,450 259 116 -640
2019-03-17 12:14:10 GMT 51.162540 -0.085983 1,500 258 117 -704
2019-03-17 12:14:06 GMT 51.163052 -0.082703 1,550 258 116 -576
2019-03-17 12:14:03 GMT 51.163284 -0.080414 1,550 258 115 -576
2019-03-17 12:13:58 GMT 51.163834 -0.075939 1,625 258 118 -704
2019-03-17 12:13:55 GMT 51.164120 -0.073547 1,650 259 120 -704
2019-03-17 12:13:52 GMT 51.164539 -0.071487 1,700 259 120 -896
2019-03-17 12:13:49 GMT 51.164841 -0.068293 1,800 259 117 -512
2019-03-17 12:13:45 GMT 51.165283 -0.065308 1,825 258 117 -448
2019-03-17 12:13:42 GMT 51.165703 -0.062561 1,825 259 117 -512
2019-03-17 12:13:36 GMT 51.166534 -0.057010 1,875 258 117 -320
2019-03-17 12:13:32 GMT 51.166901 -0.054041 1,925 257 116 -512
2019-03-17 12:13:27 GMT 51.167381 -0.049820 2,000 258 114 -576
2019-03-17 12:13:24 GMT 51.167801 -0.046844 2,025 259 114 -512
2019-03-17 12:13:21 GMT 51.168171 -0.044785 2,100 258 114 -576
2019-03-17 12:13:17 GMT 51.168636 -0.041885 2,075 259 115 -448
2019-03-17 12:13:14 GMT 51.168915 -0.039444 2,100 259 115 -448
2019-03-17 12:13:11 GMT 51.169289 -0.036850 2,125 258 117 -640
2019-03-17 12:13:05 GMT 51.170078 -0.030975 2,200 258 121 -576
2019-03-17 12:13:01 GMT 51.170563 -0.027911 2,225 258 122 -448
2019-03-17 12:12:57 GMT 51.171104 -0.023193 2,325 258 132 -768
2019-03-17 12:12:54 GMT 51.171295 -0.020933 2,325 258 132 -768
2019-03-17 12:12:51 GMT 51.171799 -0.018484 2,350 258 135 -768
2019-03-17 12:12:47 GMT 51.172455 -0.013657 2,425 258 139 -704
2019-03-17 12:12:44 GMT 51.172577 -0.012174 2,475 258 139 -640
2019-03-17 12:12:41 GMT 51.173813 -0.003786 2,500 258 143 -1024
2019-03-17 12:12:37 GMT 51.173813 -0.003786 2,550 258 146 -960
2019-03-17 12:12:33 GMT 51.174133 -0.000965 2,625 258 147 -768
2019-03-17 12:12:30 GMT 51.174683 0.002672 2,675 259 149 -768
2019-03-17 12:12:26 GMT 51.175598 0.007794 2,750 258 152 -896
2019-03-17 12:12:22 GMT 51.175873 0.011654 3,000 258 153 -448
2019-03-17 12:12:19 GMT 51.176273 0.014954 2,825 258 153 -1088
2019-03-17 12:12:13 GMT 51.177200 0.020859 2,950 258 153 -576
2019-03-17 12:12:10 GMT 51.177715 0.025024 2,975 259 154 -384
2019-03-17 12:12:07 GMT 51.178116 0.027317 2,975 259 154 -384
2019-03-17 12:12:02 GMT 51.179016 0.033951 3,025 259 156 -704
2019-03-17 12:11:59 GMT 51.179398 0.037487 3,150 258 153 -576
2019-03-17 12:11:54 GMT 51.180222 0.043277 3,150 259 152 -192
2019-03-17 12:11:51 GMT 51.180553 0.047073 3,175 258 155 0
2019-03-17 12:11:48 GMT 51.181046 0.049735 3,175 258 152 64
2019-03-17 12:11:42 GMT 51.182137 0.058975 3,175 258 156 0
2019-03-17 12:11:39 GMT 51.182137 0.058975 3,175 258 159 -64
2019-03-17 12:11:36 GMT 51.182831 0.063023 3,175 258 161 128
2019-03-17 12:11:33 GMT 51.183300 0.066376 3,175 258 164 64
2019-03-17 12:11:30 GMT 51.183792 0.069852 3,175 259 167 64
2019-03-17 12:11:27 GMT 51.184250 0.072896 3,175 258 168 0
2019-03-17 12:11:23 GMT 51.185028 0.078389 3,175 258 169 64
2019-03-17 12:11:20 GMT 51.185631 0.082779 3,175 258 169 -64
2019-03-17 12:11:14 GMT 51.186329 0.088425 3,200 259 168 -128
2019-03-17 12:11:11 GMT 51.187073 0.092545 3,200 259 167 0
2019-03-17 12:11:07 GMT 51.187500 0.097244 3,200 259 166 128
2019-03-17 12:11:04 GMT 51.188095 0.101698 3,175 259 165 0
2019-03-17 12:11:01 GMT 51.188423 0.104523 3,175 260 167 0
2019-03-17 12:10:57 GMT 51.189240 0.110383 3,175 259 166 0
2019-03-17 12:10:54 GMT 51.189774 0.114365 3,175 259 166 0
2019-03-17 12:10:51 GMT 51.190144 0.116959 3,175 258 166 64
2019-03-17 12:10:46 GMT 51.190842 0.122223 3,175 259 167 0
2019-03-17 12:10:42 GMT 51.191391 0.127159 3,175 260 167 0
2019-03-17 12:10:39 GMT 51.192333 0.134888 3,175 260 167 0
2019-03-17 12:10:36 GMT 51.192333 0.134888 3,175 260 167 0
2019-03-17 12:10:33 GMT 51.192902 0.138368 3,175 260 167 0
2019-03-17 12:10:30 GMT 51.193031 0.141525 3,175 261 168 0
2019-03-17 12:10:27 GMT 51.193775 0.147476 3,175 263 166 64
2019-03-17 12:10:23 GMT 51.194149 0.150146 3,175 263 166 -128
2019-03-17 12:10:20 GMT 51.194382 0.153809 3,175 264 166 128
2019-03-17 12:10:16 GMT 51.194778 0.158782 3,175 264 166 0
2019-03-17 12:10:13 GMT 51.194916 0.162716 3,175 265 166 0
2019-03-17 12:10:10 GMT 51.195217 0.166702 3,175 265 166 -128
2019-03-17 12:10:06 GMT 51.195545 0.171585 3,200 267 165 0
2019-03-17 12:10:03 GMT 51.195419 0.174890 3,200 269 164 0
2019-03-17 12:10:00 GMT 51.195602 0.177934 3,200 274 165 0
2019-03-17 12:09:53 GMT 51.195419 0.187436 3,200 278 167 -64
2019-03-17 12:09:50 GMT 51.194984 0.191650 3,200 278 167 -64
2019-03-17 12:09:45 GMT 51.194660 0.196152 3,175 278 167 64
2019-03-17 12:09:42 GMT 51.194183 0.201466 3,175 278 167 64
2019-03-17 12:09:39 GMT 51.194054 0.205154 3,200 278 167 -64
2019-03-17 12:09:36 GMT 51.193771 0.208666 3,200 279 165 64
2019-03-17 12:09:32 GMT 51.193359 0.212749 3,200 279 164 -192
2019-03-17 12:09:28 GMT 51.192902 0.218316 3,225 279 163 -192
2019-03-17 12:09:25 GMT 51.192444 0.220617 3,225 279 164 -320
2019-03-17 12:09:21 GMT 51.192169 0.225665 3,275 280 164 -384
2019-03-17 12:09:17 GMT 51.191448 0.231552 3,300 280 166 -448
2019-03-17 12:09:11 GMT 51.190937 0.238037 3,350 280 164 -448
2019-03-17 12:09:05 GMT 51.190018 0.245040 3,375 280 164 -448
2019-03-17 12:09:01 GMT 51.189743 0.249568 3,425 282 166 -512
2019-03-17 12:08:55 GMT 51.188461 0.258030 3,475 285 169 -448
2019-03-17 12:08:52 GMT 51.187820 0.261148 3,500 292 171 -448
2019-03-17 12:08:48 GMT 51.186745 0.265274 3,525 304 174 -640
2019-03-17 12:08:45 GMT 51.184891 0.269536 3,575 315 178 -448
2019-03-17 12:08:41 GMT 51.181229 0.274732 3,625 328 180 -576
2019-03-17 12:08:38 GMT 51.181229 0.274732 3,625 328 180 -576
2019-03-17 12:08:33 GMT 51.177338 0.277924 3,675 342 186 -448
2019-03-17 12:08:30 GMT 51.174225 0.279083 3,725 22 208 -384
2019-03-17 12:08:27 GMT 51.172222 0.279465 3,725 358 195 -896
2019-03-17 12:08:24 GMT 51.169662 0.279465 3,775 4 198 -448
2019-03-17 12:08:21 GMT 51.166634 0.278854 3,800 11 202 -320
2019-03-17 12:08:18 GMT 51.164494 0.278015 3,850 21 208 -320
2019-03-17 12:08:12 GMT 51.157974 0.273990 3,875 24 211 -640
2019-03-17 12:08:08 GMT 51.154404 0.271615 3,925 24 214 -512
2019-03-17 12:08:01 GMT 51.148666 0.267410 4,000 24 216 -512
2019-03-17 12:07:58 GMT 51.145615 0.265082 4,025 24 218 -448
2019-03-17 12:07:55 GMT 51.138844 0.260468 4,200 23 227 -640
2019-03-17 12:07:51 GMT 51.138844 0.260468 4,075 23 221 -896
2019-03-17 12:07:47 GMT 51.135258 0.257950 4,150 23 223 -704
2019-03-17 12:07:42 GMT 51.130745 0.254898 4,275 22 226 -384
2019-03-17 12:07:39 GMT 51.128723 0.253131 4,325 23 228 -640
2019-03-17 12:07:36 GMT 51.125061 0.251052 4,250 22 226 -384
2019-03-17 12:07:32 GMT 51.121399 0.248529 4,275 23 227 -640
2019-03-17 12:07:29 GMT 51.118267 0.246353 4,325 23 228 -640
2019-03-17 12:07:26 GMT 51.115128 0.244075 4,425 23 231 -1024
2019-03-17 12:07:22 GMT 51.111752 0.241776 4,425 23 231 -1024
2019-03-17 12:07:18 GMT 51.107746 0.238953 4,650 24 232 -1408
2019-03-17 12:07:15 GMT 51.104004 0.236280 4,575 24 232 -1408
2019-03-17 12:07:12 GMT 51.101879 0.234833 4,650 24 231 -1280
2019-03-17 12:07:08 GMT 51.097134 0.231323 4,750 25 232 -1024
2019-03-17 12:07:05 GMT 51.095177 0.229797 4,825 25 232 -1024
2019-03-17 12:07:02 GMT 51.092377 0.227818 4,850 25 232 -896
2019-03-17 12:06:57 GMT 51.086845 0.223465 4,950 25 233 -704
2019-03-17 12:06:54 GMT 51.084961 0.222250 4,975 25 234 -512
2019-03-17 12:06:51 GMT 51.081528 0.219801 5,000 25 236 -576
2019-03-17 12:06:46 GMT 51.076584 0.215867 5,050 24 238 -768
2019-03-17 12:06:43 GMT 51.073380 0.213491 5,075 24 238 -768
2019-03-17 12:06:40 GMT 51.071228 0.212155 5,150 24 238 -1600
2019-03-17 12:06:36 GMT 51.063614 0.206299 5,275 24 238 -1472
2019-03-17 12:06:33 GMT 51.063614 0.206299 5,300 24 238 -1280
2019-03-17 12:06:30 GMT 51.057240 0.201874 5,400 23 238 -640
2019-03-17 12:06:24 GMT 51.054794 0.200352 5,475 24 238 -1152
2019-03-17 12:06:21 GMT 51.052162 0.198288 5,450 24 238 -1152
2019-03-17 12:06:17 GMT 51.047607 0.194785 5,525 24 239 -1088
2019-03-17 12:06:14 GMT 51.041748 0.190405 5,625 25 240 -1408
2019-03-17 12:06:07 GMT 51.035889 0.186174 5,775 25 240 -1344
2019-03-17 12:06:03 GMT 51.033447 0.184250 5,900 24 239 -1792
2019-03-17 12:06:00 GMT 51.030212 0.181943 5,950 24 238 -1664
2019-03-17 12:05:57 GMT 51.027771 0.180359 6,025 23 237 -1216
2019-03-17 12:05:54 GMT 51.024353 0.177563 6,100 23 237 -1216
2019-03-17 12:05:51 GMT 51.021286 0.175781 6,400 20 235 -576
2019-03-17 12:05:48 GMT 51.015335 0.172218 6,325 16 232 -896
2019-03-17 12:05:45 GMT 51.011444 0.170733 6,400 7 226 -832
2019-03-17 12:05:41 GMT 51.011444 0.170733 6,400 8 227 -832
2019-03-17 12:05:38 GMT 51.004944 0.169100 6,475 3 226 -704
2019-03-17 12:05:35 GMT 50.998260 0.168655 6,425 0 226 -896
2019-03-17 12:05:29 GMT 50.998260 0.168655 6,550 330 218 -832
2019-03-17 12:05:25 GMT 50.994370 0.169026 6,650 333 219 -832
2019-03-17 12:05:21 GMT 50.989410 0.170975 6,600 340 220 -768
2019-03-17 12:05:18 GMT 50.987503 0.172144 6,625 296 215 -896
2019-03-17 12:05:15 GMT 50.983841 0.175262 6,725 324 217 -640
2019-03-17 12:05:11 GMT 50.981403 0.178452 6,800 311 216 -832
2019-03-17 12:05:07 GMT 50.978519 0.183105 6,800 309 216 -896
2019-03-17 12:05:04 GMT 50.974777 0.193077 6,975 277 215 -1152
2019-03-17 12:05:00 GMT 50.974777 0.193077 6,975 289 215 -896
2019-03-17 12:04:57 GMT 50.974190 0.196457 7,150 279 215 -1088
2019-03-17 12:04:54 GMT 50.973495 0.208963 7,025 262 216 -1472
2019-03-17 12:04:49 GMT 50.973495 0.208963 7,125 267 216 -1536
2019-03-17 12:04:46 GMT 50.974377 0.218048 7,450 261 216 -1344
2019-03-17 12:04:43 GMT 50.974377 0.218048 7,325 259 216 -1280
2019-03-17 12:04:39 GMT 50.975510 0.225962 7,400 259 214 -1344
2019-03-17 12:04:35 GMT 50.975784 0.230267 8,525 259 214 -1216
2019-03-17 12:04:32 GMT 50.976654 0.234276 7,550 259 214 -1344
2019-03-17 12:04:28 GMT 50.977772 0.242615 7,675 259 214 -1216
2019-03-17 12:04:24 GMT 50.978287 0.248032 7,700 259 214 -1216
2019-03-17 12:04:20 GMT 50.979263 0.254170 7,850 259 214 -896
2019-03-17 12:04:17 GMT 50.979950 0.260035 7,900 259 217 -256
2019-03-17 12:04:14 GMT 50.980286 0.263062 7,925 259 216 -320
2019-03-17 12:04:11 GMT 50.980846 0.267868 7,950 259 217 -64
2019-03-17 12:04:08 GMT 50.981552 0.272802 7,950 259 217 -256
2019-03-17 12:04:05 GMT 50.982010 0.277023 7,975 259 217 -192
2019-03-17 12:04:02 GMT 50.982941 0.282745 7,975 259 217 0
2019-03-17 12:03:59 GMT 50.983200 0.286387 7,975 259 218 -64
2019-03-17 12:03:56 GMT 50.984024 0.291286 8,000 259 219 -64
2019-03-17 12:03:53 GMT 50.984570 0.296707 8,000 259 220 0
2019-03-17 12:03:50 GMT 50.985947 0.306504 8,000 259 220 0
2019-03-17 12:03:46 GMT 50.985947 0.306504 8,000 259 220 0
2019-03-17 12:03:43 GMT 50.986477 0.311813 8,000 259 220 0
2019-03-17 12:03:40 GMT 50.987270 0.315933 8,000 259 221 0
2019-03-17 12:03:37 GMT 50.987686 0.320756 8,000 259 221 0
2019-03-17 12:03:34 GMT 50.988419 0.327437 8,000 259 221 -128
2019-03-17 12:03:31 GMT 50.989243 0.331446 8,000 259 221 -64
2019-03-17 12:03:28 GMT 50.989830 0.336838 8,025 259 220 -128
2019-03-17 12:03:24 GMT 50.990524 0.341987 8,025 259 219 0
2019-03-17 12:03:21 GMT 50.991119 0.347257 8,025 259 217 -64
2019-03-17 12:03:18 GMT 50.991760 0.351340 8,025 259 217 -64
2019-03-17 12:03:15 GMT 50.992310 0.355942 8,025 259 217 -64
2019-03-17 12:03:12 GMT 50.992767 0.360545 8,050 259 221 -768
2019-03-17 12:03:09 GMT 50.993637 0.366112 8,100 259 219 -448
2019-03-17 12:03:06 GMT 50.994736 0.375317 8,100 259 221 -1024
2019-03-17 12:03:03 GMT 50.994736 0.375317 8,150 259 218 -1600
2019-03-17 12:03:00 GMT 50.995468 0.379696 8,175 259 221 -1152
2019-03-17 12:02:57 GMT 50.995926 0.384373 8,250 259 220 -1408
2019-03-17 12:02:54 GMT 50.996719 0.389023 8,375 259 219 -1600
2019-03-17 12:02:51 GMT 50.997391 0.395137 8,400 259 218 -1600
2019-03-17 12:02:47 GMT 50.997978 0.399399 8,550 259 217 -1408
2019-03-17 12:02:44 GMT 50.998856 0.405381 8,725 259 217 -1408
2019-03-17 12:02:41 GMT 50.999084 0.409166 8,600 259 217 -1408
2019-03-17 12:02:38 GMT 51.000538 0.419006 8,750 259 217 -1344
2019-03-17 12:02:32 GMT 51.001740 0.428170 9,550 260 216 -1344
2019-03-17 12:02:29 GMT 51.001740 0.428170 9,100 259 217 -1152
2019-03-17 12:02:26 GMT 51.002289 0.432253 8,950 259 217 -1152
2019-03-17 12:02:23 GMT 51.003517 0.442429 9,075 260 216 -1280
2019-03-17 12:02:20 GMT 51.003517 0.442429 9,100 260 217 -1088
2019-03-17 12:02:16 GMT 51.004761 0.453557 10,025 260 217 -1408
2019-03-17 12:02:12 GMT 51.005447 0.459793 9,325 260 216 -1408
2019-03-17 12:02:09 GMT 51.005447 0.459793 9,350 260 216 -1344
2019-03-17 12:02:06 GMT 51.006077 0.464706 9,400 260 216 -1344
2019-03-17 12:02:03 GMT 51.006592 0.469517 9,850 260 216 -1280
2019-03-17 12:02:00 GMT 51.007240 0.474930 9,600 260 216 -1280
2019-03-17 12:01:57 GMT 51.007660 0.478745 9,675 260 217 -1088
2019-03-17 12:01:54 GMT 51.008331 0.484512 9,725 260 217 -1088
2019-03-17 12:01:51 GMT 51.008652 0.487630 9,775 260 217 -1024
2019-03-17 12:01:48 GMT 51.009846 0.497513 9,850 260 218 -1088
2019-03-17 12:01:42 GMT 51.010220 0.500717 9,950 260 218 -1088
2019-03-17 12:01:39 GMT 51.011398 0.510716 10,075 262 226 -960
2019-03-17 12:01:36 GMT 51.011398 0.510716 10,050 260 219 -1088
2019-03-17 12:01:33 GMT 51.011902 0.515764 10,075 260 219 -1088
2019-03-17 12:01:30 GMT 51.012726 0.522073 10,225 262 226 -960
2019-03-17 12:01:24 GMT 51.013760 0.530014 10,325 260 221 -832
2019-03-17 12:01:21 GMT 51.014420 0.535880 10,350 260 221 -832
2019-03-17 12:01:18 GMT 51.014832 0.540037 10,375 260 222 -960
2019-03-17 12:01:15 GMT 51.015434 0.544510 10,425 260 222 -1088
2019-03-17 12:01:12 GMT 51.015884 0.548648 10,500 260 223 -1088
2019-03-17 12:01:09 GMT 51.016689 0.555420 10,550 260 223 -1088
2019-03-17 12:01:06 GMT 51.017715 0.565033 10,625 261 224 -1152
2019-03-17 12:01:03 GMT 51.018135 0.568619 10,700 262 223 -1152
2019-03-17 12:01:00 GMT 51.018135 0.568619 10,800 262 224 -896
2019-03-17 12:00:57 GMT 51.018539 0.573664 10,825 262 224 -896
2019-03-17 12:00:54 GMT 51.019043 0.578564 10,925 262 224 -896
2019-03-17 12:00:51 GMT 51.019485 0.583572 10,875 262 224 -896
2019-03-17 12:00:48 GMT 51.019997 0.589447 10,925 265 236 -960
2019-03-17 12:00:44 GMT 51.020737 0.594598 11,075 262 227 -896
2019-03-17 12:00:41 GMT 51.021103 0.600314 11,075 262 226 -896
2019-03-17 12:00:37 GMT 51.021606 0.606104 11,125 262 227 -832
2019-03-17 12:00:34 GMT 51.022293 0.610706 11,200 262 227 -960
2019-03-17 12:00:31 GMT 51.022743 0.617752 11,450 262 228 -1152
2019-03-17 12:00:28 GMT 51.023392 0.623623 11,375 262 228 -1152
2019-03-17 12:00:22 GMT 51.023861 0.630646 11,425 263 228 -1088
2019-03-17 12:00:19 GMT 51.024490 0.636539 11,450 263 228 -1088
2019-03-17 12:00:16 GMT 51.024696 0.640488 11,625 263 227 -1216
2019-03-17 12:00:13 GMT 51.025360 0.645744 11,650 263 227 -1344
2019-03-17 12:00:10 GMT 51.025589 0.650717 11,700 263 227 -1280
2019-03-17 12:00:07 GMT 51.026230 0.657175 11,750 263 227 -1280
2019-03-17 12:00:04 GMT 51.026413 0.659625 11,775 263 227 -1216
2019-03-17 12:00:01 GMT 51.027119 0.666046 11,825 263 227 -1152
2019-03-17 11:59:58 GMT 51.027584 0.672302 11,950 263 227 -1216
2019-03-17 11:59:54 GMT 51.027908 0.677032 11,975 263 227 -1280
2019-03-17 11:59:51 GMT 51.028423 0.682144 12,275 262 226 -1088
2019-03-17 11:59:48 GMT 51.028934 0.688705 12,175 262 226 -1216
2019-03-17 11:59:44 GMT 51.029633 0.695343 12,250 262 226 -1024
2019-03-17 11:59:40 GMT 51.030098 0.701141 12,300 262 226 -1024
2019-03-17 11:59:36 GMT 51.030655 0.706787 12,400 262 227 -960
2019-03-17 11:59:33 GMT 51.031029 0.711823 12,700 262 228 -896
2019-03-17 11:59:29 GMT 51.031540 0.718384 12,550 262 229 -896
2019-03-17 11:59:26 GMT 51.032043 0.723242 12,775 263 230 -1024
2019-03-17 11:59:23 GMT 51.032593 0.730220 12,625 262 229 -896
2019-03-17 11:59:19 GMT 51.033218 0.736465 12,700 263 230 -960
2019-03-17 11:59:15 GMT 51.033962 0.743484 12,775 263 230 -1152
2019-03-17 11:59:12 GMT 51.034008 0.746536 12,925 264 231 -1152
2019-03-17 11:59:09 GMT 51.034382 0.752182 12,925 264 231 -1152
2019-03-17 11:59:05 GMT 51.034939 0.757370 12,925 267 232 -1152
2019-03-17 11:59:02 GMT 51.035545 0.768814 13,050 265 231 -1152
2019-03-17 11:58:56 GMT 51.035778 0.774078 13,175 268 232 -1152
2019-03-17 11:58:53 GMT 51.036026 0.779584 13,225 269 232 -1152
2019-03-17 11:58:50 GMT 51.035961 0.785599 13,250 270 232 -1088
2019-03-17 11:58:47 GMT 51.036118 0.789828 13,300 270 232 -1088
2019-03-17 11:58:44 GMT 51.036148 0.794067 13,375 270 233 -1216
2019-03-17 11:58:41 GMT 51.036198 0.799179 13,425 270 233 -1472
2019-03-17 11:58:38 GMT 51.036243 0.804291 13,600 270 232 -1536
2019-03-17 11:58:35 GMT 51.036243 0.809402 13,650 270 232 -1472
2019-03-17 11:58:29 GMT 51.036301 0.821154 13,800 270 232 -1344
2019-03-17 11:58:26 GMT 51.036335 0.825653 13,850 270 231 -1344
2019-03-17 11:58:23 GMT 51.036346 0.830136 13,950 270 232 -1280
2019-03-17 11:58:20 GMT 51.036346 0.834070 13,975 270 232 -1344
2019-03-17 11:58:16 GMT 51.036381 0.841599 14,075 270 231 -1344
2019-03-17 11:58:13 GMT 51.036335 0.847092 14,300 270 231 -1344
2019-03-17 11:58:10 GMT 51.036476 0.851746 14,300 270 231 -1280
2019-03-17 11:58:07 GMT 51.036530 0.858047 14,300 270 231 -1216
2019-03-17 11:58:03 GMT 51.036530 0.864728 14,425 270 231 -896
2019-03-17 11:58:00 GMT 51.036575 0.870592 14,450 270 232 -832
2019-03-17 11:57:56 GMT 51.036522 0.879669 14,550 270 233 -640
2019-03-17 11:57:50 GMT 51.036530 0.885661 14,550 270 234 -640
2019-03-17 11:57:47 GMT 51.036667 0.891155 14,600 268 235 -768
2019-03-17 11:57:44 GMT 51.036850 0.897019 14,650 264 236 -1024
2019-03-17 11:57:41 GMT 51.037312 0.901337 14,800 258 237 -1344
2019-03-17 11:57:36 GMT 51.038292 0.909882 15,075 247 240 -832
2019-03-17 11:57:33 GMT 51.039230 0.914760 14,900 252 237 -1344
2019-03-17 11:57:30 GMT 51.040573 0.920029 14,925 248 238 -1216
2019-03-17 11:57:26 GMT 51.042114 0.926118 15,050 247 239 -1088
2019-03-17 11:57:23 GMT 51.043552 0.930939 15,100 247 239 -1024
2019-03-17 11:57:20 GMT 51.045044 0.936584 15,150 247 239 -960
2019-03-17 11:57:16 GMT 51.047058 0.944082 15,250 248 241 -896
2019-03-17 11:57:13 GMT 51.048206 0.948257 15,275 248 241 -896
2019-03-17 11:57:10 GMT 51.048904 0.950775 15,325 248 242 -960
2019-03-17 11:57:07 GMT 51.050392 0.956268 15,400 247 242 -1152
2019-03-17 11:57:04 GMT 51.052322 0.963679 15,550 247 243 -1280
2019-03-17 11:57:01 GMT 51.053467 0.968475 15,550 247 242 -1280
2019-03-17 11:56:57 GMT 51.055981 0.977249 15,650 247 242 -1280
2019-03-17 11:56:51 GMT 51.057724 0.983944 15,850 247 242 -1280
2019-03-17 11:56:48 GMT 51.058914 0.987805 15,850 247 242 -1280
2019-03-17 11:56:45 GMT 51.060196 0.992555 15,900 247 242 -1280
2019-03-17 11:56:42 GMT 51.061615 0.997974 15,950 246 243 -1216
2019-03-17 11:56:39 GMT 51.062916 1.002655 16,100 246 243 -1216
2019-03-17 11:56:35 GMT 51.065197 1.010208 16,125 246 243 -1280
2019-03-17 11:56:32 GMT 51.066101 1.013637 16,175 246 243 -1344
2019-03-17 11:56:29 GMT 51.068085 1.020355 16,275 246 243 -1472
2019-03-17 11:56:26 GMT 51.069168 1.024624 16,350 246 242 -1472
2019-03-17 11:56:23 GMT 51.070038 1.027832 16,400 246 242 -1536
2019-03-17 11:56:20 GMT 51.072273 1.035156 16,525 246 242 -1536
2019-03-17 11:56:14 GMT 51.075020 1.044846 16,650 247 240 -1280
2019-03-17 11:56:11 GMT 51.075672 1.047821 16,750 247 241 -1344
2019-03-17 11:56:08 GMT 51.077675 1.054306 16,875 231 247 -1216
2019-03-17 11:56:02 GMT 51.080093 1.063385 16,975 247 241 -1088
2019-03-17 11:55:59 GMT 51.081074 1.067657 17,000 247 241 -1088
2019-03-17 11:55:56 GMT 51.082855 1.073988 17,275 111 307 -320
2019-03-17 11:55:52 GMT 51.086472 1.083638 17,250 233 246 -1216
2019-03-17 11:55:49 GMT 51.086472 1.083638 17,225 236 245 -1216
2019-03-17 11:55:46 GMT 51.088940 1.089249 17,300 231 247 -1216
2019-03-17 11:55:43 GMT 51.090637 1.091878 17,550 223 251 -1152
2019-03-17 11:55:40 GMT 51.092709 1.095581 17,400 223 251 -1152
2019-03-17 11:55:34 GMT 51.098511 1.102641 17,625 111 307 -320
2019-03-17 11:55:31 GMT 51.102764 1.106262 17,625 206 261 -1024
2019-03-17 11:55:28 GMT 51.106522 1.108803 17,700 192 270 -1152
2019-03-17 11:55:25 GMT 51.108032 1.109768 17,700 197 267 -1088
2019-03-17 11:55:21 GMT 51.113342 1.111920 17,775 192 270 -1152
2019-03-17 11:55:18 GMT 51.117966 1.112885 18,075 170 281 -1408
2019-03-17 11:55:13 GMT 51.126415 1.112366 18,125 173 279 -1472
2019-03-17 11:55:10 GMT 51.130875 1.111104 18,150 167 284 -1344
2019-03-17 11:55:07 GMT 51.130875 1.111104 18,950 162 291 -128
2019-03-17 11:55:03 GMT 51.136005 1.109009 18,200 162 286 -896
2019-03-17 11:55:00 GMT 51.139542 1.107178 18,325 161 288 -576
2019-03-17 11:54:57 GMT 51.144291 1.104507 18,325 161 289 -576
2019-03-17 11:54:54 GMT 51.147629 1.102716 18,350 161 290 -576
2019-03-17 11:54:51 GMT 51.151703 1.100637 18,400 161 291 -768
2019-03-17 11:54:48 GMT 51.154949 1.099014 18,825 161 292 -832
2019-03-17 11:54:45 GMT 51.160072 1.096268 18,500 161 292 -1152
2019-03-17 11:54:41 GMT 51.163971 1.094179 19,000 162 292 0
2019-03-17 11:54:38 GMT 51.167999 1.092026 18,625 161 292 -1216
2019-03-17 11:54:35 GMT 51.172485 1.089725 18,800 162 290 0
2019-03-17 11:54:32 GMT 51.176331 1.087721 18,800 161 291 -896
2019-03-17 11:54:26 GMT 51.184231 1.083527 18,950 162 290 0
2019-03-17 11:54:23 GMT 51.190613 1.080223 18,975 111 307 -320
2019-03-17 11:54:20 GMT 51.190613 1.080223 18,950 162 292 -256
2019-03-17 11:54:17 GMT 51.194614 1.077881 18,975 162 291 -128
2019-03-17 11:54:14 GMT 51.198803 1.076050 18,975 162 291 -64
2019-03-17 11:54:11 GMT 51.203506 1.073685 18,975 162 290 0
2019-03-17 11:54:05 GMT 51.210583 1.070251 19,000 162 290 -64
2019-03-17 11:53:59 GMT 51.219223 1.065971 19,000 162 292 0
2019-03-17 11:53:55 GMT 51.223022 1.063966 19,000 160 293 64
2019-03-17 11:53:52 GMT 51.226456 1.062259 18,975 111 307 -320
2019-03-17 11:53:49 GMT 51.230831 1.059799 19,000 159 293 128
2019-03-17 11:53:46 GMT 51.235115 1.057205 19,000 157 293 128
2019-03-17 11:53:43 GMT 51.238464 1.054840 19,000 141 300 0
2019-03-17 11:53:40 GMT 51.243301 1.050902 19,000 147 297 0
2019-03-17 11:53:37 GMT 51.245262 1.048889 18,975 124 307 0
2019-03-17 11:53:34 GMT 51.248333 1.045227 18,975 115 314 0
2019-03-17 11:53:31 GMT 51.252480 1.039352 18,975 137 302 0
2019-03-17 11:53:28 GMT 51.255596 1.033859 18,975 128 306 0
2019-03-17 11:53:25 GMT 51.257355 1.030414 18,975 124 307 0
2019-03-17 11:53:22 GMT 51.262161 1.017646 18,975 117 311 0
2019-03-17 11:53:19 GMT 51.262161 1.017646 18,975 115 312 0
2019-03-17 11:53:16 GMT 51.264347 1.010437 18,975 115 312 0
2019-03-17 11:53:13 GMT 51.265778 1.005917 18,975 115 313 0
2019-03-17 11:53:09 GMT 51.268398 0.997086 19,000 115 315 0
2019-03-17 11:53:06 GMT 51.270214 0.991135 18,975 115 313 0
2019-03-17 11:53:02 GMT 51.272736 0.982757 18,975 115 313 0
2019-03-17 11:52:58 GMT 51.275024 0.975185 18,975 115 314 64
2019-03-17 11:52:54 GMT 51.277477 0.966492 18,975 115 314 64
2019-03-17 11:52:51 GMT 51.278961 0.961452 18,975 115 315 0
2019-03-17 11:52:48 GMT 51.281479 0.953509 18,975 115 316 0
2019-03-17 11:52:45 GMT 51.283539 0.946383 18,975 115 316 -64
2019-03-17 11:52:42 GMT 51.285717 0.938568 18,975 115 316 -64
2019-03-17 11:52:39 GMT 51.287624 0.932465 19,000 115 314 0
2019-03-17 11:52:36 GMT 51.288975 0.927658 19,000 115 313 64
2019-03-17 11:52:33 GMT 51.290588 0.922332 18,975 111 307 -320
2019-03-17 11:52:30 GMT 51.292419 0.916096 18,975 114 307 576
2019-03-17 11:52:27 GMT 51.294235 0.909653 18,950 114 306 512
2019-03-17 11:52:23 GMT 51.296658 0.901566 18,900 114 306 384
2019-03-17 11:52:20 GMT 51.298939 0.894165 18,875 115 309 0
2019-03-17 11:52:17 GMT 51.300842 0.887369 18,875 115 309 0
2019-03-17 11:52:14 GMT 51.303726 0.877496 18,875 115 309 0
2019-03-17 11:52:08 GMT 51.307846 0.863392 18,875 115 310 0
2019-03-17 11:52:05 GMT 51.307846 0.863392 18,875 115 310 0
2019-03-17 11:52:02 GMT 51.309906 0.856414 18,875 115 310 0
2019-03-17 11:51:59 GMT 51.311459 0.851593 18,875 115 311 0
2019-03-17 11:51:56 GMT 51.313183 0.845718 18,875 115 311 0
2019-03-17 11:51:53 GMT 51.315079 0.839489 18,875 114 311 0
2019-03-17 11:51:50 GMT 51.317276 0.831843 18,875 113 312 256
2019-03-17 11:51:47 GMT 51.318859 0.826187 18,875 113 312 0
2019-03-17 11:51:44 GMT 51.320435 0.820708 18,875 113 312 0
2019-03-17 11:51:41 GMT 51.321854 0.815364 18,875 114 312 0
2019-03-17 11:51:38 GMT 51.324005 0.807866 18,875 114 312 0
2019-03-17 11:51:35 GMT 51.325424 0.802917 18,875 113 312 128
2019-03-17 11:51:31 GMT 51.328266 0.792770 18,875 113 312 0
2019-03-17 11:51:28 GMT 51.329987 0.786438 18,850 113 312 128
2019-03-17 11:51:25 GMT 51.332291 0.778248 18,875 113 312 128
2019-03-17 11:51:22 GMT 51.334923 0.768738 18,850 113 312 192
2019-03-17 11:51:16 GMT 51.336456 0.763030 18,850 113 312 256
2019-03-17 11:51:13 GMT 51.338970 0.753937 18,825 113 312 192
2019-03-17 11:51:10 GMT 51.340462 0.748444 18,825 113 312 192
2019-03-17 11:51:06 GMT 51.344467 0.733931 18,675 113 313 256
2019-03-17 11:51:03 GMT 51.344467 0.733931 18,725 113 312 256
2019-03-17 11:51:00 GMT 51.346142 0.727768 18,725 113 312 256
2019-03-17 11:50:57 GMT 51.347763 0.721609 18,725 113 313 256
2019-03-17 11:50:54 GMT 51.350143 0.712891 18,725 113 313 256
2019-03-17 11:50:51 GMT 51.351822 0.706558 18,725 113 314 256
2019-03-17 11:50:48 GMT 51.355358 0.693283 18,725 111 308 -256
2019-03-17 11:50:45 GMT 51.355358 0.693283 18,725 112 314 64
2019-03-17 11:50:42 GMT 51.356243 0.689850 18,700 112 314 64
2019-03-17 11:50:39 GMT 51.358150 0.682602 18,700 112 314 64
2019-03-17 11:50:36 GMT 51.359779 0.676117 18,700 112 314 64
2019-03-17 11:50:33 GMT 51.363506 0.661545 18,700 112 314 128
2019-03-17 11:50:30 GMT 51.363506 0.661545 18,675 112 314 64
2019-03-17 11:50:26 GMT 51.365616 0.653093 18,675 112 314 64
2019-03-17 11:50:23 GMT 51.367184 0.646896 18,675 111 311 0
2019-03-17 11:50:20 GMT 51.368530 0.641708 18,675 112 314 64
2019-03-17 11:50:17 GMT 51.370010 0.635945 18,650 112 313 0
2019-03-17 11:50:14 GMT 51.371841 0.628670 18,650 112 313 0
2019-03-17 11:50:11 GMT 51.373856 0.620950 18,650 112 313 0
2019-03-17 11:50:08 GMT 51.375687 0.613676 18,650 111 313 0
2019-03-17 11:50:05 GMT 51.377239 0.607452 18,650 111 313 0
2019-03-17 11:50:02 GMT 51.379890 0.596695 18,650 111 312 0
2019-03-17 11:49:59 GMT 51.379890 0.596695 18,675 111 311 -64
2019-03-17 11:49:56 GMT 51.381775 0.589179 18,675 111 311 -64
2019-03-17 11:49:53 GMT 51.383614 0.581741 18,675 111 310 -128
2019-03-17 11:49:49 GMT 51.385254 0.575075 18,700 111 309 -192
2019-03-17 11:49:46 GMT 51.387039 0.567874 18,725 111 309 -128
2019-03-17 11:49:43 GMT 51.388363 0.562515 18,700 111 309 -192
2019-03-17 11:49:40 GMT 51.390106 0.555478 18,700 111 308 -256
2019-03-17 11:49:37 GMT 51.393539 0.541522 18,825 111 307 -320
2019-03-17 11:49:33 GMT 51.393539 0.541522 18,725 111 307 -320
2019-03-17 11:49:30 GMT 51.395004 0.535658 18,750 111 306 -320
2019-03-17 11:49:27 GMT 51.398560 0.521088 18,775 111 306 -256
2019-03-17 11:49:24 GMT 51.398560 0.521088 18,800 111 306 -192
2019-03-17 11:49:21 GMT 51.401733 0.508266 18,800 111 306 0
2019-03-17 11:49:18 GMT 51.401733 0.508266 18,800 111 307 0
2019-03-17 11:49:15 GMT 51.403336 0.501956 18,825 111 307 64
2019-03-17 11:49:12 GMT 51.404610 0.496674 18,825 111 307 64
2019-03-17 11:49:09 GMT 51.406677 0.488446 18,800 111 308 0
2019-03-17 11:49:06 GMT 51.407452 0.485229 18,800 111 308 0
2019-03-17 11:49:03 GMT 51.408966 0.479093 18,800 112 312 0
2019-03-17 11:49:00 GMT 51.410751 0.471892 18,800 111 309 0
2019-03-17 11:48:57 GMT 51.412766 0.463801 18,800 111 309 0
2019-03-17 11:48:53 GMT 51.415009 0.454893 18,825 112 309 -128
2019-03-17 11:48:50 GMT 51.415924 0.451355 18,825 112 309 -128
2019-03-17 11:48:47 GMT 51.417553 0.444946 18,825 111 310 -128
2019-03-17 11:48:44 GMT 51.419556 0.436859 18,825 111 309 -64
2019-03-17 11:48:40 GMT 51.421600 0.428615 18,850 111 309 -128
2019-03-17 11:48:37 GMT 51.423386 0.421341 18,850 111 311 0
2019-03-17 11:48:34 GMT 51.425034 0.414511 18,850 111 311 0
2019-03-17 11:48:31 GMT 51.426441 0.408783 18,875 111 309 0
2019-03-17 11:48:28 GMT 51.427654 0.403671 18,850 111 310 0
2019-03-17 11:48:25 GMT 51.430573 0.391945 18,850 111 311 0
2019-03-17 11:48:19 GMT 51.432678 0.383334 18,850 111 311 0
2019-03-17 11:48:16 GMT 51.433891 0.378418 18,850 112 312 0
2019-03-17 11:48:13 GMT 51.435848 0.370712 18,850 112 312 0
2019-03-17 11:48:10 GMT 51.438595 0.360031 18,875 112 312 0
2019-03-17 11:48:07 GMT 51.440186 0.353864 18,875 112 312 0
2019-03-17 11:48:04 GMT 51.440186 0.353864 18,875 112 311 0
2019-03-17 11:48:01 GMT 51.442410 0.345078 18,875 112 311 -64
2019-03-17 11:47:58 GMT 51.443855 0.339584 18,875 112 310 -64
2019-03-17 11:47:55 GMT 51.445251 0.334091 18,875 112 310 -128
2019-03-17 11:47:52 GMT 51.448833 0.320129 18,900 112 309 -192
2019-03-17 11:47:49 GMT 51.448833 0.320129 18,900 112 308 -192
2019-03-17 11:47:46 GMT 51.450302 0.314372 18,925 112 308 -256
2019-03-17 11:47:43 GMT 51.452839 0.304489 18,950 112 306 -256
2019-03-17 11:47:40 GMT 51.453552 0.301753 18,925 112 306 -256
2019-03-17 11:47:37 GMT 51.455154 0.295443 18,950 112 306 -256
2019-03-17 11:47:34 GMT 51.457027 0.288086 18,975 112 306 -192
2019-03-17 11:47:31 GMT 51.458679 0.281636 19,000 111 307 -64
2019-03-17 11:47:28 GMT 51.460335 0.275116 19,000 111 307 -64
2019-03-17 11:47:25 GMT 51.461334 0.271095 19,000 111 307 64
2019-03-17 11:47:22 GMT 51.464630 0.258030 19,000 111 308 0
2019-03-17 11:47:19 GMT 51.466805 0.249329 18,975 111 308 0
2019-03-17 11:47:16 GMT 51.466805 0.249329 18,975 111 309 0
2019-03-17 11:47:13 GMT 51.468292 0.243454 18,975 112 309 0
2019-03-17 11:47:10 GMT 51.469551 0.238342 18,975 112 309 -64
2019-03-17 11:47:07 GMT 51.470947 0.232849 19,000 112 309 -64
2019-03-17 11:47:04 GMT 51.472576 0.226440 19,025 111 309 -192
2019-03-17 11:47:01 GMT 51.474483 0.218811 19,025 111 309 -128
2019-03-17 11:46:58 GMT 51.475983 0.212600 19,025 111 309 -192
2019-03-17 11:46:55 GMT 51.477604 0.205994 19,025 110 309 -192
2019-03-17 11:46:52 GMT 51.480446 0.193024 19,050 105 310 -192
2019-03-17 11:46:49 GMT 51.480446 0.193024 19,050 104 310 -128
2019-03-17 11:46:46 GMT 51.481567 0.186619 19,075 100 311 -64
2019-03-17 11:46:43 GMT 51.482391 0.179864 19,075 95 312 0
2019-03-17 11:46:40 GMT 51.482910 0.173187 19,075 93 312 0
2019-03-17 11:46:37 GMT 51.483051 0.165329 19,075 82 312 0
2019-03-17 11:46:34 GMT 51.482941 0.160935 19,075 84 312 0
2019-03-17 11:46:31 GMT 51.482166 0.151596 19,075 76 311 128
2019-03-17 11:46:25 GMT 51.479919 0.138517 19,050 59 306 0
2019-03-17 11:46:22 GMT 51.477997 0.131391 19,050 44 299 0
2019-03-17 11:46:19 GMT 51.476440 0.126724 19,050 56 304 0
2019-03-17 11:46:16 GMT 51.471832 0.115967 19,050 49 301 0
2019-03-17 11:46:13 GMT 51.471832 0.115967 19,050 40 297 0
2019-03-17 11:46:10 GMT 51.468933 0.110903 19,075 42 297 0
2019-03-17 11:46:07 GMT 51.466385 0.107117 19,050 35 295 -128
2019-03-17 11:46:04 GMT 51.461929 0.101698 19,075 29 292 -128
2019-03-17 11:46:01 GMT 51.457764 0.097838 19,100 26 289 -64
2019-03-17 11:45:58 GMT 51.455490 0.095978 19,075 26 289 -64
2019-03-17 11:45:55 GMT 51.450699 0.092087 19,075 26 289 -64
2019-03-17 11:45:52 GMT 51.448277 0.090179 19,100 26 289 -64
2019-03-17 11:45:49 GMT 51.445312 0.087816 19,100 25 288 64
2019-03-17 11:45:46 GMT 51.441467 0.084773 19,100 26 289 0
2019-03-17 11:45:43 GMT 51.437164 0.081432 19,100 21 287 128
2019-03-17 11:45:40 GMT 51.431236 0.077133 19,100 24 288 0
2019-03-17 11:45:37 GMT 51.431236 0.077133 19,100 24 288 0
2019-03-17 11:45:34 GMT 51.426956 0.074009 19,075 24 288 64
2019-03-17 11:45:31 GMT 51.423065 0.071263 19,075 23 287 256
2019-03-17 11:45:28 GMT 51.418530 0.068359 19,050 7 282 0
2019-03-17 11:45:25 GMT 51.415737 0.066986 19,050 9 283 0
2019-03-17 11:45:22 GMT 51.410618 0.065384 19,050 6 281 0
2019-03-17 11:45:19 GMT 51.408009 0.065002 19,050 2 280 -64
2019-03-17 11:45:16 GMT 51.404144 0.064926 19,050 357 278 -64
2019-03-17 11:45:13 GMT 51.399071 0.065842 19,075 346 274 0
2019-03-17 11:45:10 GMT 51.396557 0.066605 19,075 348 274 0
2019-03-17 11:45:07 GMT 51.391388 0.068665 19,075 346 274 0
2019-03-17 11:45:04 GMT 51.388550 0.069778 19,075 346 277 0
2019-03-17 11:45:01 GMT 51.384613 0.071411 19,075 346 275 0
2019-03-17 11:44:58 GMT 51.381565 0.072708 19,075 346 276 0
2019-03-17 11:44:55 GMT 51.377701 0.074306 19,075 346 276 0
2019-03-17 11:44:52 GMT 51.375000 0.075420 19,075 346 277 0
2019-03-17 11:44:49 GMT 51.370514 0.077201 19,075 346 278 0
2019-03-17 11:44:46 GMT 51.366158 0.079041 19,050 346 281 128
2019-03-17 11:44:43 GMT 51.361771 0.080764 19,050 346 280 64
2019-03-17 11:44:40 GMT 51.358383 0.082169 19,050 346 281 128
2019-03-17 11:44:37 GMT 51.355728 0.083214 19,050 346 281 128
2019-03-17 11:44:34 GMT 51.351471 0.084921 19,050 346 282 192
2019-03-17 11:44:31 GMT 51.347771 0.086441 19,025 346 284 256
2019-03-17 11:44:28 GMT 51.339905 0.089569 19,000 347 285 256
2019-03-17 11:44:25 GMT 51.339905 0.089569 18,550 346 310 960
2019-03-17 11:44:22 GMT 51.335129 0.091454 18,975 347 286 320
2019-03-17 11:44:19 GMT 51.331661 0.092850 18,975 346 287 256
2019-03-17 11:44:15 GMT 51.327164 0.094646 18,950 346 288 320
2019-03-17 11:44:12 GMT 51.323654 0.096054 18,925 347 290 448
2019-03-17 11:44:09 GMT 51.319382 0.097763 18,925 347 294 576
2019-03-17 11:44:06 GMT 51.314251 0.099716 17,850 345 338 1408
2019-03-17 11:44:03 GMT 51.311737 0.100733 18,850 347 294 576
2019-03-17 11:44:00 GMT 51.308201 0.102158 18,800 347 295 640
2019-03-17 11:43:57 GMT 51.302994 0.104147 18,800 347 297 640
2019-03-17 11:43:54 GMT 51.299515 0.105558 18,750 347 298 640
2019-03-17 11:43:51 GMT 51.295486 0.107191 18,525 346 306 832
2019-03-17 11:43:48 GMT 51.287064 0.110531 18,650 346 305 768
2019-03-17 11:43:42 GMT 51.283108 0.112152 18,600 346 307 896
2019-03-17 11:43:39 GMT 51.279099 0.113798 18,550 346 308 960
2019-03-17 11:43:36 GMT 51.273514 0.116099 18,450 346 313 1024
2019-03-17 11:43:33 GMT 51.270584 0.117264 18,450 346 315 1024
2019-03-17 11:43:30 GMT 51.265320 0.119439 18,400 346 318 1088
2019-03-17 11:43:27 GMT 51.257690 0.122604 18,225 346 322 1088
2019-03-17 11:43:24 GMT 51.257690 0.122604 18,200 346 327 1280
2019-03-17 11:43:21 GMT 51.253784 0.124264 17,275 345 365 2368
2019-03-17 11:43:18 GMT 51.249985 0.125897 18,125 346 331 1344
2019-03-17 11:43:15 GMT 51.244797 0.128098 18,050 346 332 1344
2019-03-17 11:43:12 GMT 51.238953 0.130574 17,850 345 366 2304
2019-03-17 11:43:09 GMT 51.236694 0.131531 17,925 345 345 1600
2019-03-17 11:43:06 GMT 51.231079 0.133914 17,850 346 344 1536
2019-03-17 11:43:03 GMT 51.226269 0.135956 17,800 345 350 1728
2019-03-17 11:43:00 GMT 51.221420 0.138071 17,650 345 355 1856
2019-03-17 11:42:57 GMT 51.216866 0.139999 17,550 345 356 1920
2019-03-17 11:42:54 GMT 51.211094 0.142517 17,425 345 363 1792
2019-03-17 11:42:51 GMT 51.207832 0.143890 17,350 345 366 1856
2019-03-17 11:42:48 GMT 51.198383 0.148010 17,150 345 367 2176
2019-03-17 11:42:42 GMT 51.193123 0.150223 17,000 346 356 2304
2019-03-17 11:42:39 GMT 51.188095 0.152398 16,975 345 365 2368
2019-03-17 11:42:36 GMT 51.182556 0.154774 16,825 346 364 2432
2019-03-17 11:42:33 GMT 51.178299 0.156555 16,750 346 363 2432
2019-03-17 11:42:30 GMT 51.169235 0.160415 16,475 346 363 2432
2019-03-17 11:42:27 GMT 51.163239 0.162964 16,375 346 362 2368
2019-03-17 11:42:24 GMT 51.159374 0.164566 16,300 346 358 2304
2019-03-17 11:42:21 GMT 51.159374 0.164566 16,225 346 358 2368
2019-03-17 11:42:18 GMT 51.153881 0.166931 16,075 346 359 2368
2019-03-17 11:42:14 GMT 51.145706 0.170288 15,850 346 357 2304
2019-03-17 11:42:11 GMT 51.142662 0.171585 15,700 346 357 2304
2019-03-17 11:42:08 GMT 51.136414 0.174148 15,625 346 356 2304
2019-03-17 11:42:05 GMT 51.133575 0.175336 15,200 346 355 2304
2019-03-17 11:42:02 GMT 51.127018 0.178070 15,475 346 350 2240
2019-03-17 11:41:59 GMT 51.124008 0.179270 15,200 346 353 2240
2019-03-17 11:41:56 GMT 51.117691 0.181868 15,125 346 352 2240
2019-03-17 11:41:53 GMT 51.114532 0.183204 15,075 346 352 2176
2019-03-17 11:41:50 GMT 51.109497 0.185209 14,925 346 350 2240
2019-03-17 11:41:47 GMT 51.100113 0.189069 14,350 346 343 2176
2019-03-17 11:41:41 GMT 51.095596 0.190964 14,575 346 347 2176
2019-03-17 11:41:38 GMT 51.089859 0.193300 14,425 346 345 2176
2019-03-17 11:41:35 GMT 51.085075 0.195236 14,300 346 343 2176
2019-03-17 11:41:32 GMT 51.081398 0.196762 14,225 346 342 2112
2019-03-17 11:41:29 GMT 51.076790 0.198669 14,125 346 340 2048
2019-03-17 11:41:26 GMT 51.067989 0.202255 13,900 346 337 1984
2019-03-17 11:41:23 GMT 51.063034 0.204286 13,700 347 307 1472
2019-03-17 11:41:17 GMT 51.058681 0.205994 13,700 346 334 1920
2019-03-17 11:41:14 GMT 51.052872 0.208369 13,550 346 330 1792
2019-03-17 11:41:10 GMT 51.048431 0.210151 13,400 346 328 1728
2019-03-17 11:41:07 GMT 51.039825 0.213547 13,250 346 321 1664
2019-03-17 11:41:04 GMT 51.039825 0.213547 13,225 346 322 1728
2019-03-17 11:41:01 GMT 51.035217 0.215454 13,075 346 319 1664
2019-03-17 11:40:58 GMT 51.030376 0.217361 13,075 346 316 1600
2019-03-17 11:40:55 GMT 51.027260 0.218582 12,875 346 314 1600
2019-03-17 11:40:52 GMT 51.021469 0.220914 12,875 347 269 512
2019-03-17 11:40:48 GMT 51.015930 0.223067 12,825 347 306 1408
2019-03-17 11:40:45 GMT 51.013340 0.224075 12,725 346 305 1408
2019-03-17 11:40:42 GMT 51.008286 0.226111 12,650 346 300 1408
2019-03-17 11:40:39 GMT 51.002930 0.228189 12,500 346 295 1280
2019-03-17 11:40:35 GMT 51.000046 0.229377 12,275 347 285 1024
2019-03-17 11:40:32 GMT 50.994949 0.231323 12,375 347 285 1024
2019-03-17 11:40:26 GMT 50.987877 0.234146 12,200 347 263 512
2019-03-17 11:40:23 GMT 50.984253 0.235612 12,225 347 270 640
2019-03-17 11:40:20 GMT 50.980473 0.237045 12,200 347 265 512
2019-03-17 11:40:17 GMT 50.975372 0.239027 12,150 347 257 512
2019-03-17 11:40:14 GMT 50.973675 0.239716 12,100 347 254 512
2019-03-17 11:40:11 GMT 50.969009 0.241477 12,075 347 247 448
2019-03-17 11:40:08 GMT 50.966766 0.242367 12,075 323 232 -128
2019-03-17 11:40:05 GMT 50.963562 0.243703 12,025 323 232 -128
2019-03-17 11:40:02 GMT 50.960503 0.245361 12,050 338 240 -64
2019-03-17 11:39:59 GMT 50.957661 0.247421 12,025 329 238 -192
2019-03-17 11:39:56 GMT 50.953659 0.251083 12,050 316 228 -320
2019-03-17 11:39:53 GMT 50.949238 0.256424 12,025 313 223 -256
2019-03-17 11:39:50 GMT 50.947311 0.259292 12,025 316 228 -320
2019-03-17 11:39:47 GMT 50.944256 0.264511 12,050 313 223 0
2019-03-17 11:39:44 GMT 50.944256 0.264511 12,050 313 223 0
2019-03-17 11:39:41 GMT 50.943279 0.266190 12,100 314 223 -832
2019-03-17 11:39:38 GMT 50.940018 0.271683 12,075 314 223 -1088
2019-03-17 11:39:35 GMT 50.938484 0.274277 12,125 314 223 -1280
2019-03-17 11:39:32 GMT 50.936234 0.277924 12,225 314 224 -832
2019-03-17 11:39:29 GMT 50.934200 0.281372 12,275 314 224 -832
2019-03-17 11:39:26 GMT 50.932060 0.284958 12,275 314 224 -832
2019-03-17 11:39:23 GMT 50.930195 0.288010 12,325 314 223 -832
2019-03-17 11:39:20 GMT 50.927856 0.291954 12,425 314 224 -896
2019-03-17 11:39:17 GMT 50.925705 0.295517 12,425 314 224 -896
2019-03-17 11:39:14 GMT 50.923233 0.299526 12,475 314 224 -960
2019-03-17 11:39:11 GMT 50.921951 0.301679 12,525 314 227 -1024
2019-03-17 11:39:08 GMT 50.918930 0.306726 12,750 314 234 -1152
2019-03-17 11:39:05 GMT 50.916836 0.310211 12,625 314 227 -1024
2019-03-17 11:39:02 GMT 50.915039 0.313259 12,825 314 228 -1024
2019-03-17 11:38:59 GMT 50.911697 0.318900 12,750 314 229 -1024
2019-03-17 11:38:56 GMT 50.910599 0.320663 12,875 314 229 -960
2019-03-17 11:38:53 GMT 50.908688 0.323868 12,875 314 229 -960
2019-03-17 11:38:49 GMT 50.905945 0.328522 12,950 314 228 -896
2019-03-17 11:38:45 GMT 50.902267 0.334712 12,975 314 227 -192
2019-03-17 11:38:42 GMT 50.900452 0.337677 13,000 314 228 -192
2019-03-17 11:38:39 GMT 50.898331 0.341170 13,025 314 228 -128
2019-03-17 11:38:35 GMT 50.895126 0.346515 13,025 314 235 -1088
2019-03-17 11:38:31 GMT 50.891838 0.352020 13,075 314 234 -896
2019-03-17 11:38:28 GMT 50.889221 0.356313 13,075 314 233 -768
2019-03-17 11:38:24 GMT 50.887089 0.359955 13,125 314 234 -1024
2019-03-17 11:38:21 GMT 50.884735 0.363811 13,150 314 234 -1088
2019-03-17 11:38:17 GMT 50.881409 0.369415 14,500 314 235 -1088
2019-03-17 11:38:13 GMT 50.879593 0.372391 13,300 314 235 -1088
2019-03-17 11:38:10 GMT 50.874660 0.380630 13,450 314 236 -1024
2019-03-17 11:38:07 GMT 50.872009 0.384967 13,650 314 236 -1088
2019-03-17 11:38:04 GMT 50.872009 0.384967 13,525 314 236 -1088
2019-03-17 11:38:01 GMT 50.869308 0.389495 13,575 314 236 -1152
2019-03-17 11:37:58 GMT 50.867661 0.392242 13,625 314 236 -1152
2019-03-17 11:37:54 GMT 50.864838 0.396881 13,850 314 236 -1216
2019-03-17 11:37:51 GMT 50.862076 0.401521 13,825 314 236 -1216
2019-03-17 11:37:48 GMT 50.859512 0.405826 13,850 314 236 -1152
2019-03-17 11:37:42 GMT 50.855713 0.412062 13,975 314 237 -1088
2019-03-17 11:37:39 GMT 50.853470 0.415847 14,025 314 237 -1152
2019-03-17 11:37:36 GMT 50.851246 0.419540 14,050 314 237 -1152
2019-03-17 11:37:33 GMT 50.849075 0.423196 14,125 314 239 -896
2019-03-17 11:37:30 GMT 50.845551 0.428986 14,200 314 240 -768
2019-03-17 11:37:27 GMT 50.843582 0.432327 14,400 314 241 -832
2019-03-17 11:37:23 GMT 50.841328 0.436020 14,350 314 242 -768
2019-03-17 11:37:20 GMT 50.838394 0.440903 14,350 314 244 -768
2019-03-17 11:37:14 GMT 50.833881 0.448380 14,525 314 249 -448
2019-03-17 11:37:11 GMT 50.831314 0.452741 14,450 314 249 -448
2019-03-17 11:37:08 GMT 50.828613 0.457195 14,475 314 249 -448
2019-03-17 11:37:05 GMT 50.824448 0.464098 14,525 314 253 -512
2019-03-17 11:36:59 GMT 50.821590 0.468750 14,575 314 255 -576
2019-03-17 11:36:56 GMT 50.817307 0.475769 14,600 315 257 -576
2019-03-17 11:36:53 GMT 50.817307 0.475769 14,650 314 259 -576
2019-03-17 11:36:50 GMT 50.814056 0.481097 14,675 314 261 -576
2019-03-17 11:36:47 GMT 50.812408 0.483844 14,675 314 263 -512
2019-03-17 11:36:44 GMT 50.809811 0.488129 14,700 314 263 -512
2019-03-17 11:36:41 GMT 50.807510 0.491935 14,825 314 265 -512
2019-03-17 11:36:38 GMT 50.804626 0.496686 14,775 314 268 -512
2019-03-17 11:36:34 GMT 50.801056 0.502699 14,875 314 271 -512
2019-03-17 11:36:31 GMT 50.798950 0.506113 14,825 314 273 -576
2019-03-17 11:36:28 GMT 50.795471 0.511904 14,950 314 277 -640
2019-03-17 11:36:25 GMT 50.793732 0.514799 14,975 314 276 -640
2019-03-17 11:36:22 GMT 50.790894 0.519475 14,925 314 282 -576
2019-03-17 11:36:19 GMT 50.788166 0.524063 14,950 314 280 -640
2019-03-17 11:36:16 GMT 50.785976 0.527573 15,000 314 282 -576
2019-03-17 11:36:13 GMT 50.782654 0.533134 15,050 314 285 -576
2019-03-17 11:36:10 GMT 50.780018 0.537491 15,075 314 287 -576
2019-03-17 11:36:06 GMT 50.776428 0.543378 15,125 314 289 -576
2019-03-17 11:36:03 GMT 50.770844 0.552583 15,200 314 294 -576
2019-03-17 11:36:00 GMT 50.767357 0.558395 15,175 314 294 -576
2019-03-17 11:35:57 GMT 50.767357 0.558395 15,200 314 297 -576
2019-03-17 11:35:54 GMT 50.764702 0.562744 15,225 314 299 -576
2019-03-17 11:35:51 GMT 50.762188 0.566864 15,275 314 302 -576
2019-03-17 11:35:48 GMT 50.759304 0.571594 15,300 314 303 -640
2019-03-17 11:35:45 GMT 50.756790 0.575790 15,325 314 304 -640
2019-03-17 11:35:42 GMT 50.753357 0.581385 15,425 314 307 -640
2019-03-17 11:35:39 GMT 50.750504 0.586090 15,400 314 311 -576
2019-03-17 11:35:36 GMT 50.747177 0.591554 15,575 314 313 -576
2019-03-17 11:35:33 GMT 50.744686 0.595627 15,475 314 316 -640
2019-03-17 11:35:30 GMT 50.741428 0.600967 15,525 314 317 -704
2019-03-17 11:35:27 GMT 50.738068 0.606475 15,550 314 321 -704
2019-03-17 11:35:24 GMT 50.734489 0.612411 15,575 314 323 -704
2019-03-17 11:35:21 GMT 50.731976 0.616455 15,675 314 325 -768
2019-03-17 11:35:18 GMT 50.729511 0.620575 15,700 314 332 -704
2019-03-17 11:35:15 GMT 50.725616 0.626963 15,675 314 329 -704
2019-03-17 11:35:12 GMT 50.723179 0.630951 15,700 314 331 -704
2019-03-17 11:35:09 GMT 50.719967 0.636215 15,775 314 335 -640
2019-03-17 11:35:06 GMT 50.716335 0.642242 15,900 314 339 -576
2019-03-17 11:35:03 GMT 50.713078 0.647583 15,850 314 339 -512
2019-03-17 11:35:00 GMT 50.710373 0.652053 15,875 314 342 -448
2019-03-17 11:34:57 GMT 50.705860 0.659409 15,925 314 345 -320
2019-03-17 11:34:54 GMT 50.701904 0.665894 15,925 314 345 -384
2019-03-17 11:34:51 GMT 50.699112 0.670463 15,925 314 345 -320
2019-03-17 11:34:47 GMT 50.694672 0.677738 15,975 314 347 -128
2019-03-17 11:34:44 GMT 50.692474 0.681375 15,975 314 347 -128
2019-03-17 11:34:41 GMT 50.689133 0.686868 15,975 314 347 0
2019-03-17 11:34:38 GMT 50.685890 0.692139 15,975 314 345 -128
2019-03-17 11:34:35 GMT 50.682587 0.697632 15,975 314 346 -64
2019-03-17 11:34:31 GMT 50.677597 0.705797 16,000 314 345 -320
2019-03-17 11:34:26 GMT 50.672390 0.714340 16,000 314 345 -192
2019-03-17 11:34:22 GMT 50.667736 0.721980 16,025 314 345 -320
2019-03-17 11:34:19 GMT 50.663864 0.728350 16,025 314 345 -320
2019-03-17 11:34:14 GMT 50.658783 0.736662 16,050 314 345 -448
2019-03-17 11:34:11 GMT 50.655670 0.741722 17,200 314 355 -2304
2019-03-17 11:34:05 GMT 50.649162 0.752415 16,275 314 352 -1664
2019-03-17 11:34:01 GMT 50.644135 0.760659 16,200 314 350 -1408
2019-03-17 11:33:57 GMT 50.640381 0.766875 16,300 314 352 -1728
2019-03-17 11:33:54 GMT 50.631844 0.780772 16,450 314 354 -1984
2019-03-17 11:33:50 GMT 50.631844 0.780772 16,600 314 355 -2176
2019-03-17 11:33:47 GMT 50.624069 0.793391 16,775 314 356 -2304
2019-03-17 11:33:44 GMT 50.624069 0.793391 16,775 314 357 -2304
2019-03-17 11:33:41 GMT 50.621933 0.796942 17,525 314 364 -2368
2019-03-17 11:33:35 GMT 50.614712 0.808757 17,725 314 358 -2304
2019-03-17 11:33:32 GMT 50.610718 0.815373 17,250 314 360 -2240
2019-03-17 11:33:29 GMT 50.607822 0.820040 17,350 314 359 -2304
2019-03-17 11:33:26 GMT 50.599724 0.833254 17,650 314 362 -2304
2019-03-17 11:33:23 GMT 50.599724 0.833254 17,700 314 362 -2304
2019-03-17 11:33:20 GMT 50.597763 0.836479 17,700 314 362 -2368
2019-03-17 11:33:17 GMT 50.594833 0.841196 17,900 314 363 -2368
2019-03-17 11:33:13 GMT 50.590347 0.848622 18,025 314 364 -2368
2019-03-17 11:33:10 GMT 50.583115 0.860475 18,200 314 365 -2368
2019-03-17 11:33:07 GMT 50.583115 0.860475 18,750 315 367 -2368
2019-03-17 11:33:03 GMT 50.572441 0.877941 18,600 315 367 -2368
2019-03-17 11:32:59 GMT 50.572441 0.877941 18,625 315 367 -2368
2019-03-17 11:32:56 GMT 50.570206 0.881581 19,325 315 374 -2368
2019-03-17 11:32:52 GMT 50.563923 0.891823 18,925 314 369 -2368
2019-03-17 11:32:49 GMT 50.561234 0.896253 19,025 314 370 -2432
2019-03-17 11:32:46 GMT 50.558121 0.901240 19,650 315 376 -2304
2019-03-17 11:32:42 GMT 50.549446 0.915503 19,450 315 374 -2368
2019-03-17 11:32:39 GMT 50.545990 0.921117 19,525 314 373 -2368
2019-03-17 11:32:36 GMT 50.545990 0.921117 19,575 314 373 -2368
2019-03-17 11:32:33 GMT 50.542976 0.926044 19,675 315 376 -2304
2019-03-17 11:32:29 GMT 50.533951 0.940632 19,975 315 376 -2304
2019-03-17 11:32:26 GMT 50.533951 0.940632 20,325 315 383 -2560
2019-03-17 11:32:23 GMT 50.530220 0.946754 20,150 315 377 -2368
2019-03-17 11:32:20 GMT 50.526684 0.952544 20,225 315 378 -2368
2019-03-17 11:32:16 GMT 50.517700 0.967086 20,550 315 379 -2432
2019-03-17 11:32:13 GMT 50.517700 0.967086 20,550 314 380 -2368
2019-03-17 11:32:09 GMT 50.512070 0.976193 20,750 315 381 -2432
2019-03-17 11:32:03 GMT 50.506573 0.985132 21,125 315 383 -2560
2019-03-17 11:31:59 GMT 50.497101 1.000479 21,250 315 383 -2560
2019-03-17 11:31:56 GMT 50.497101 1.000479 21,450 315 383 -2496
2019-03-17 11:31:52 GMT 50.492661 1.007562 21,400 315 384 -2496
2019-03-17 11:31:48 GMT 50.487900 1.015223 21,675 315 384 -2368
2019-03-17 11:31:45 GMT 50.483505 1.022451 21,900 314 388 -2112
2019-03-17 11:31:41 GMT 50.479431 1.028740 21,875 314 388 -2112
2019-03-17 11:31:37 GMT 50.474121 1.037630 22,075 314 390 -2112
2019-03-17 11:31:34 GMT 50.469563 1.044815 22,650 315 392 -2240
2019-03-17 11:31:31 GMT 50.466660 1.049483 22,675 315 392 -2304
2019-03-17 11:31:28 GMT 50.461349 1.058012 22,500 314 393 -2240
2019-03-17 11:31:25 GMT 50.457184 1.064951 22,575 314 395 -2304
2019-03-17 11:31:21 GMT 50.451359 1.074211 22,675 314 394 -2304
2019-03-17 11:31:17 GMT 50.448986 1.078367 22,925 315 396 -2368
2019-03-17 11:31:14 GMT 50.443954 1.086418 22,975 315 398 -2304
2019-03-17 11:31:10 GMT 50.433994 1.102344 23,200 315 398 -2304
2019-03-17 11:31:06 GMT 50.433994 1.102344 23,325 315 400 -2368
2019-03-17 11:31:03 GMT 50.427200 1.113305 23,525 315 401 -2496
2019-03-17 11:30:57 GMT 50.421288 1.122684 23,725 314 403 -2368
2019-03-17 11:30:54 GMT 50.418819 1.126989 23,975 314 404 -2304
2019-03-17 11:30:51 GMT 50.415573 1.132242 24,075 315 405 -2304
2019-03-17 11:30:48 GMT 50.410217 1.141133 24,100 315 405 -2304
2019-03-17 11:30:45 GMT 50.407230 1.145473 24,125 315 406 -2304
2019-03-17 11:30:42 GMT 50.402206 1.153781 24,325 315 408 -2432
2019-03-17 11:30:39 GMT 50.398991 1.158909 24,575 315 408 -2432
2019-03-17 11:30:36 GMT 50.395477 1.164840 24,625 314 410 -2496
2019-03-17 11:30:33 GMT 50.390842 1.172271 24,675 315 420 -2496
2019-03-17 11:30:30 GMT 50.388290 1.176260 24,975 315 411 -2496
2019-03-17 11:30:27 GMT 50.379715 1.190087 25,275 315 414 -2496
2019-03-17 11:30:21 GMT 50.371758 1.203151 26,700 315 420 -2496
2019-03-17 11:30:18 GMT 50.371758 1.203151 25,300 315 415 -2496
2019-03-17 11:30:14 GMT 50.366501 1.211532 25,525 315 418 -2496
2019-03-17 11:30:10 GMT 50.360870 1.220494 25,850 315 434 -2560
2019-03-17 11:30:07 GMT 50.357510 1.225866 26,100 315 419 -2496
2019-03-17 11:30:03 GMT 50.351440 1.235528 26,100 315 420 -2496
2019-03-17 11:30:00 GMT 50.347183 1.242539 27,350 315 426 -2560
2019-03-17 11:29:57 GMT 50.343887 1.247743 26,300 315 426 -2560
2019-03-17 11:29:53 GMT 50.337540 1.257935 26,400 314 422 -2560
2019-03-17 11:29:49 GMT 50.329208 1.271667 26,775 314 423 -2560
2019-03-17 11:29:43 GMT 50.324970 1.278200 26,825 315 424 -2560
2019-03-17 11:29:38 GMT 50.310772 1.300989 27,250 315 427 -2560
2019-03-17 11:29:34 GMT 50.310772 1.300989 27,250 315 427 -2560
2019-03-17 11:29:31 GMT 50.308136 1.305422 27,350 315 427 -2560
2019-03-17 11:29:27 GMT 50.301044 1.316504 27,650 315 429 -2624
2019-03-17 11:29:23 GMT 50.296509 1.323853 27,750 315 430 -2688
2019-03-17 11:29:19 GMT 50.291920 1.331647 28,200 315 436 -2624
2019-03-17 11:29:16 GMT 50.286144 1.340555 28,050 315 434 -2624
2019-03-17 11:29:13 GMT 50.282421 1.346419 28,125 315 432 -2688
2019-03-17 11:29:08 GMT 50.276882 1.355401 28,500 315 434 -2624
2019-03-17 11:29:05 GMT 50.267712 1.369431 28,575 315 436 -2624
2019-03-17 11:28:59 GMT 50.256134 1.388253 28,825 315 437 -2816
2019-03-17 11:28:55 GMT 50.256134 1.388253 29,000 315 437 -2944
2019-03-17 11:28:52 GMT 50.253326 1.393111 29,775 315 438 -3264
2019-03-17 11:28:47 GMT 50.246346 1.404320 29,525 315 434 -1664
2019-03-17 11:28:43 GMT 50.239967 1.414935 29,600 315 437 -3520
2019-03-17 11:28:40 GMT 50.231495 1.427851 30,050 315 437 -3456
2019-03-17 11:28:37 GMT 50.231495 1.427851 29,950 315 437 -3456
2019-03-17 11:28:34 GMT 50.227524 1.434366 30,125 315 437 -3392
2019-03-17 11:28:28 GMT 50.218643 1.448244 30,725 315 434 -3456
2019-03-17 11:28:25 GMT 50.214935 1.454098 32,675 315 434 -3520
2019-03-17 11:28:22 GMT 50.209568 1.462815 30,850 315 434 -3456
2019-03-17 11:28:17 GMT 50.204132 1.471517 31,600 315 434 -1664
2019-03-17 11:28:12 GMT 50.196442 1.483516 31,275 315 433 -2816
2019-03-17 11:28:09 GMT 50.191177 1.491972 31,500 315 433 -2496
2019-03-17 11:28:06 GMT 50.184494 1.502669 31,975 315 433 -2176
2019-03-17 11:28:03 GMT 50.184494 1.502669 31,875 315 434 -2240
2019-03-17 11:28:00 GMT 50.180286 1.509135 31,875 315 434 -2240
2019-03-17 11:27:56 GMT 50.173187 1.520450 32,000 315 433 -1984
2019-03-17 11:27:53 GMT 50.170322 1.525095 32,300 315 434 -1792
2019-03-17 11:27:50 GMT 50.165714 1.532222 32,225 315 433 -1280
2019-03-17 11:27:43 GMT 50.156296 1.547121 32,500 315 434 -960
2019-03-17 11:27:40 GMT 50.144897 1.565407 32,525 315 434 -960
2019-03-17 11:27:35 GMT 50.144897 1.565407 32,575 315 434 -960
2019-03-17 11:27:32 GMT 50.140575 1.572381 32,625 315 434 -1024
2019-03-17 11:27:29 GMT 50.136154 1.579507 32,675 315 434 -1024
2019-03-17 11:27:25 GMT 50.130661 1.588489 32,750 315 434 -1024
2019-03-17 11:27:22 GMT 50.126129 1.595403 32,900 315 433 -1024
2019-03-17 11:27:19 GMT 50.119263 1.606461 32,925 315 432 -1024
2019-03-17 11:27:12 GMT 50.111115 1.619327 33,075 315 432 -1024
2019-03-17 11:27:09 GMT 50.108967 1.622859 33,350 315 432 -960
2019-03-17 11:27:06 GMT 50.104523 1.630024 33,050 315 432 -960
2019-03-17 11:27:02 GMT 50.099533 1.637469 33,825 313 429 -1024
2019-03-17 11:26:59 GMT 50.094723 1.645203 33,225 315 432 -960
2019-03-17 11:26:56 GMT 50.090488 1.651809 33,200 315 431 -960
2019-03-17 11:26:53 GMT 50.083038 1.663835 33,300 314 430 -960
2019-03-17 11:26:47 GMT 50.077545 1.672743 33,375 313 429 -1024
2019-03-17 11:26:44 GMT 50.074905 1.677728 33,400 312 427 -1024
2019-03-17 11:26:40 GMT 50.069870 1.686329 33,475 312 427 -1024
2019-03-17 11:26:36 GMT 50.058739 1.706815 33,825 306 424 -1024
2019-03-17 11:26:33 GMT 50.058739 1.706815 33,625 309 425 -960
2019-03-17 11:26:30 GMT 50.054970 1.713719 33,675 309 424 -960
2019-03-17 11:26:27 GMT 50.052689 1.718544 33,900 305 426 -960
2019-03-17 11:26:23 GMT 50.046707 1.730419 33,775 306 424 -1024
2019-03-17 11:26:20 GMT 50.044418 1.735117 33,900 307 424 -1024
2019-03-17 11:26:17 GMT 50.040585 1.743189 33,975 306 424 -1024
2019-03-17 11:26:13 GMT 50.035927 1.753136 33,925 306 424 -960
2019-03-17 11:26:10 GMT 50.033066 1.759258 33,975 305 423 -960
2019-03-17 11:26:07 GMT 50.028107 1.770432 34,100 305 425 -1024
2019-03-17 11:26:03 GMT 50.024094 1.779351 34,100 305 425 -1024
2019-03-17 11:26:00 GMT 50.020660 1.787060 34,350 305 430 -896
2019-03-17 11:25:56 GMT 50.016037 1.797349 34,200 305 426 -960
2019-03-17 11:25:51 GMT 50.011505 1.807251 34,275 305 428 -1024
2019-03-17 11:25:46 GMT 50.005947 1.819796 34,375 305 429 -1024
2019-03-17 11:25:43 GMT 49.996498 1.840878 34,625 305 430 -896
2019-03-17 11:25:39 GMT 49.996498 1.840878 34,500 306 429 -896
2019-03-17 11:25:34 GMT 49.987656 1.860376 34,600 306 430 -896
2019-03-17 11:25:30 GMT 49.987656 1.860376 34,775 306 429 -960
2019-03-17 11:25:25 GMT 49.981934 1.872952 34,750 306 428 -960
2019-03-17 11:25:22 GMT 49.978157 1.881186 34,750 306 428 -960
2019-03-17 11:25:19 GMT 49.974976 1.888492 34,750 306 428 -960
2019-03-17 11:25:16 GMT 49.971680 1.895575 34,925 306 428 -1024
2019-03-17 11:25:12 GMT 49.967422 1.905116 34,925 305 426 -192
2019-03-17 11:25:09 GMT 49.963852 1.913139 34,950 305 428 -512
2019-03-17 11:25:06 GMT 49.960281 1.920826 34,975 305 425 0
2019-03-17 11:25:03 GMT 49.956741 1.928917 34,975 305 426 0
2019-03-17 11:25:00 GMT 49.954376 1.934172 34,975 305 425 0
2019-03-17 11:24:57 GMT 49.950989 1.941689 34,975 305 425 0
2019-03-17 11:24:54 GMT 49.946320 1.952242 34,975 305 424 0
2019-03-17 11:24:51 GMT 49.939053 1.968483 34,975 306 424 0
2019-03-17 11:24:44 GMT 49.934353 1.978949 34,975 305 424 0
2019-03-17 11:24:41 GMT 49.932117 1.983923 34,975 306 423 0
2019-03-17 11:24:38 GMT 49.929417 1.989787 35,000 306 422 0
2019-03-17 11:24:34 GMT 49.924202 2.001293 34,975 306 423 0
2019-03-17 11:24:31 GMT 49.920898 2.008716 34,975 306 423 0
2019-03-17 11:24:28 GMT 49.917267 2.016511 34,975 306 423 0
2019-03-17 11:24:24 GMT 49.913132 2.025749 34,975 306 423 0
2019-03-17 11:24:20 GMT 49.908794 2.035440 34,975 306 422 0
2019-03-17 11:24:17 GMT 49.905487 2.042517 34,975 306 422 0
2019-03-17 11:24:14 GMT 49.902054 2.049962 35,000 306 422 0
2019-03-17 11:24:11 GMT 49.897434 2.060159 35,000 306 422 0
2019-03-17 11:24:08 GMT 49.895142 2.065285 35,000 306 423 -64
2019-03-17 11:24:05 GMT 49.891617 2.073001 35,000 306 422 0
2019-03-17 11:24:00 GMT 49.886398 2.084656 35,000 305 423 -64
2019-03-17 11:23:57 GMT 49.882866 2.092227 35,000 306 423 -128
2019-03-17 11:23:54 GMT 49.878582 2.101655 35,000 305 423 -128
2019-03-17 11:23:50 GMT 49.874859 2.110043 35,000 305 423 -64
2019-03-17 11:23:47 GMT 49.871063 2.118843 35,000 305 424 0
2019-03-17 11:23:42 GMT 49.865570 2.130697 34,975 306 426 0
2019-03-17 11:23:38 GMT 49.862194 2.137880 34,975 306 425 0
2019-03-17 11:23:35 GMT 49.857960 2.147308 35,000 306 426 0
2019-03-17 11:23:32 GMT 49.853348 2.157512 34,975 306 426 0
2019-03-17 11:23:29 GMT 49.851162 2.162228 35,000 306 426 0
2019-03-17 11:23:26 GMT 49.843761 2.178040 35,000 306 426 0
2019-03-17 11:23:23 GMT 49.843761 2.178040 34,950 306 428 128
2019-03-17 11:23:20 GMT 49.839989 2.186576 35,000 306 428 128
2019-03-17 11:23:17 GMT 49.837555 2.191845 35,000 306 430 0
2019-03-17 11:23:14 GMT 49.834728 2.198008 35,000 306 428 128
2019-03-17 11:23:11 GMT 49.831146 2.205794 34,975 306 425 0
2019-03-17 11:23:08 GMT 49.826488 2.215452 34,975 306 430 0
2019-03-17 11:23:03 GMT 49.820576 2.229037 34,950 306 430 0
2019-03-17 11:22:59 GMT 49.817131 2.236534 34,950 306 429 0
2019-03-17 11:22:56 GMT 49.814209 2.242801 34,975 306 428 0
2019-03-17 11:22:50 GMT 49.806976 2.258702 34,975 306 404 -1280
2019-03-17 11:22:47 GMT 49.802811 2.267665 34,975 306 424 0
2019-03-17 11:22:44 GMT 49.795719 2.282558 34,975 306 421 0
2019-03-17 11:22:40 GMT 49.795719 2.282558 34,975 306 421 0
2019-03-17 11:22:37 GMT 49.791138 2.292818 34,975 306 420 -64
2019-03-17 11:22:34 GMT 49.788780 2.298073 34,975 306 418 -128
2019-03-17 11:22:31 GMT 49.785187 2.305972 34,975 306 414 -256
2019-03-17 11:22:28 GMT 49.781425 2.314478 35,025 306 414 -256
2019-03-17 11:22:25 GMT 49.779007 2.319561 35,000 306 411 -256
2019-03-17 11:22:22 GMT 49.774586 2.329398 35,025 306 411 -192
2019-03-17 11:22:19 GMT 49.772232 2.334450 35,025 306 408 -512
2019-03-17 11:22:15 GMT 49.768021 2.343799 35,025 306 406 -1088
2019-03-17 11:22:12 GMT 49.761612 2.357868 35,100 306 406 -1024
2019-03-17 11:22:09 GMT 49.761612 2.357868 35,125 306 404 -1280
2019-03-17 11:22:02 GMT 49.753922 2.374782 35,225 306 399 -1216
2019-03-17 11:21:59 GMT 49.750515 2.382029 35,425 306 402 -1280
2019-03-17 11:21:56 GMT 49.746368 2.391116 35,375 306 399 -1216
2019-03-17 11:21:52 GMT 49.742790 2.398805 37,000 306 417 -64
2019-03-17 11:21:48 GMT 49.738972 2.406674 35,550 306 400 -1216
2019-03-17 11:21:42 GMT 49.730919 2.424415 35,650 306 398 -1216
2019-03-17 11:21:39 GMT 49.725613 2.436070 35,750 306 398 -1216
2019-03-17 11:21:31 GMT 49.720722 2.446685 35,850 306 399 -1216
2019-03-17 11:21:27 GMT 49.711830 2.466282 36,450 306 407 -1088
2019-03-17 11:21:23 GMT 49.711830 2.466282 36,000 306 400 -1216
2019-03-17 11:21:20 GMT 49.708199 2.473631 36,275 306 404 -1152
2019-03-17 11:21:16 GMT 49.703247 2.484717 36,175 306 401 -1216
2019-03-17 11:21:12 GMT 49.699078 2.493748 36,300 306 403 -1152
2019-03-17 11:21:09 GMT 49.694000 2.505389 36,350 306 405 -1152
2019-03-17 11:21:06 GMT 49.694000 2.505389 36,450 306 405 -1152
2019-03-17 11:21:01 GMT 49.687439 2.519358 37,000 306 417 -64
2019-03-17 11:20:58 GMT 49.683994 2.526855 36,450 306 405 -1152
2019-03-17 11:20:55 GMT 49.681992 2.531309 36,550 306 406 -1088
2019-03-17 11:20:52 GMT 49.678501 2.538658 36,650 306 408 -1088
2019-03-17 11:20:49 GMT 49.675278 2.545937 36,900 306 414 -704
2019-03-17 11:20:45 GMT 49.671238 2.554618 36,800 306 409 -1088
2019-03-17 11:20:40 GMT 49.664703 2.568632 36,875 306 413 -960
2019-03-17 11:20:37 GMT 49.662720 2.572731 36,850 306 413 -896
2019-03-17 11:20:34 GMT 49.658157 2.582510 36,900 306 414 -512
2019-03-17 11:20:29 GMT 49.653175 2.593293 36,975 306 417 0
2019-03-17 11:20:26 GMT 49.646255 2.608024 36,975 306 417 -64
2019-03-17 11:20:23 GMT 49.646255 2.608024 36,975 306 417 0
2019-03-17 11:20:18 GMT 49.641304 2.618977 36,975 306 417 -64
2019-03-17 11:20:15 GMT 49.637394 2.627069 36,975 306 418 -64
2019-03-17 11:20:12 GMT 49.632797 2.637008 37,000 306 418 -64
2019-03-17 11:20:07 GMT 49.628815 2.645537 37,000 306 417 0
2019-03-17 11:20:04 GMT 49.625244 2.653198 37,000 306 416 0
2019-03-17 11:20:01 GMT 49.621399 2.661655 37,000 306 416 0
2019-03-17 11:19:58 GMT 49.617516 2.670123 37,000 306 416 0
2019-03-17 11:19:53 GMT 49.612930 2.679941 37,000 306 415 0
2019-03-17 11:19:50 GMT 49.609463 2.687419 37,000 306 415 0
2019-03-17 11:19:47 GMT 49.606247 2.694397 37,000 306 415 0
2019-03-17 11:19:44 GMT 49.602768 2.701625 37,000 306 415 0
2019-03-17 11:19:41 GMT 49.599640 2.708575 36,975 306 415 0
2019-03-17 11:19:38 GMT 49.593403 2.722085 36,975 306 416 0
2019-03-17 11:19:32 GMT 49.590096 2.729286 36,975 306 416 0
2019-03-17 11:19:29 GMT 49.586048 2.737897 36,975 306 416 0
2019-03-17 11:19:25 GMT 49.581024 2.748750 36,975 306 416 0
2019-03-17 11:19:22 GMT 49.578094 2.754966 36,975 306 416 0
2019-03-17 11:19:19 GMT 49.574982 2.761688 36,975 306 416 0
2019-03-17 11:19:15 GMT 49.570637 2.771079 36,975 306 416 0
2019-03-17 11:19:12 GMT 49.567062 2.778457 36,975 306 414 -64
2019-03-17 11:19:06 GMT 49.560196 2.793491 37,000 306 414 -64
2019-03-17 11:19:03 GMT 49.556442 2.801441 37,000 306 412 -64
2019-03-17 11:19:00 GMT 49.553600 2.807452 37,000 306 413 0
2019-03-17 11:18:55 GMT 49.548386 2.818644 37,000 306 412 0
2019-03-17 11:18:52 GMT 49.544804 2.826381 37,000 306 412 0
2019-03-17 11:18:49 GMT 49.542023 2.832449 37,000 306 413 0
2019-03-17 11:18:44 GMT 49.535797 2.845820 37,000 306 411 0
2019-03-17 11:18:41 GMT 49.532501 2.852687 36,975 306 412 0
2019-03-17 11:18:38 GMT 49.529526 2.859192 36,975 306 412 0
2019-03-17 11:18:35 GMT 49.525158 2.868248 36,975 306 412 0
2019-03-17 11:18:30 GMT 49.519135 2.881165 36,975 306 413 0
2019-03-17 11:18:27 GMT 49.517395 2.885284 36,975 306 413 0
2019-03-17 11:18:24 GMT 49.513733 2.892585 36,975 306 413 0
2019-03-17 11:18:21 GMT 49.507507 2.905884 36,975 306 412 -64
2019-03-17 11:18:14 GMT 49.501415 2.918949 37,000 306 412 -64
2019-03-17 11:18:10 GMT 49.497414 2.927560 37,000 306 410 0
2019-03-17 11:18:07 GMT 49.493774 2.934795 37,000 306 411 -64
2019-03-17 11:18:04 GMT 49.491173 2.940921 37,000 306 411 0
2019-03-17 11:18:01 GMT 49.487137 2.949757 36,975 306 411 0
2019-03-17 11:17:53 GMT 49.479126 2.966525 36,975 306 411 -64
2019-03-17 11:17:49 GMT 49.474834 2.975736 36,975 306 411 0
2019-03-17 11:17:42 GMT 49.467667 2.991176 37,000 306 411 0
2019-03-17 11:17:39 GMT 49.463150 3.000858 37,000 306 410 0
2019-03-17 11:17:36 GMT 49.460636 3.006023 37,000 306 411 0
2019-03-17 11:17:33 GMT 49.456120 3.015450 37,000 306 411 0
2019-03-17 11:17:28 GMT 49.451653 3.024878 37,000 306 410 -64
2019-03-17 11:17:24 GMT 49.446716 3.035479 37,000 306 419 64
2019-03-17 11:17:20 GMT 49.442200 3.045217 37,000 306 411 -64
2019-03-17 11:17:16 GMT 49.438751 3.052754 37,000 306 412 0
2019-03-17 11:17:12 GMT 49.433777 3.063478 37,000 306 415 64
2019-03-17 11:17:09 GMT 49.429913 3.071273 37,000 307 413 0
2019-03-17 11:17:04 GMT 49.423508 3.084905 37,000 307 414 64
2019-03-17 11:17:01 GMT 49.421814 3.088637 37,000 307 414 64
2019-03-17 11:16:58 GMT 49.418060 3.096173 37,000 306 418 0
2019-03-17 11:16:55 GMT 49.415451 3.102018 37,000 307 416 64
2019-03-17 11:16:52 GMT 49.407520 3.118455 36,975 306 418 0
2019-03-17 11:16:49 GMT 49.407520 3.118455 36,975 306 419 64
2019-03-17 11:16:46 GMT 49.403469 3.127056 36,975 306 419 64
2019-03-17 11:16:42 GMT 49.400162 3.134554 36,975 306 419 128
2019-03-17 11:16:39 GMT 49.395447 3.144203 36,975 306 419 128
2019-03-17 11:16:33 GMT 49.389362 3.156979 36,975 306 414 -768
2019-03-17 11:16:29 GMT 49.385605 3.164908 36,950 306 421 0
2019-03-17 11:16:26 GMT 49.381165 3.174556 36,950 307 421 0
2019-03-17 11:16:20 GMT 49.370316 3.197233 36,975 306 420 -128
2019-03-17 11:16:16 GMT 49.370316 3.197233 36,975 306 419 -128
2019-03-17 11:16:13 GMT 49.367477 3.203430 37,000 306 416 -384
2019-03-17 11:16:09 GMT 49.362396 3.213994 37,000 306 417 -192
2019-03-17 11:16:05 GMT 49.354450 3.230920 37,025 306 415 -448
2019-03-17 11:16:02 GMT 49.354450 3.230920 37,125 306 414 -768
2019-03-17 11:15:57 GMT 49.348114 3.244347 37,075 306 413 -960
2019-03-17 11:15:54 GMT 49.345978 3.249207 37,125 306 413 -1024
2019-03-17 11:15:48 GMT 49.337414 3.266915 37,225 306 411 -1024
2019-03-17 11:15:45 GMT 49.335594 3.270746 37,250 306 411 -1024
2019-03-17 11:15:42 GMT 49.328110 3.287095 37,750 307 414 -896
2019-03-17 11:15:39 GMT 49.328110 3.287095 37,375 306 410 -960
2019-03-17 11:15:35 GMT 49.324768 3.294138 37,425 306 410 -896
2019-03-17 11:15:32 GMT 49.321724 3.300452 37,450 306 410 -896
2019-03-17 11:15:28 GMT 49.316849 3.310406 37,525 307 410 -896
2019-03-17 11:15:25 GMT 49.313644 3.317449 37,575 307 410 -960
2019-03-17 11:15:22 GMT 49.309341 3.326761 37,625 307 411 -896
2019-03-17 11:15:17 GMT 49.305084 3.335337 37,700 307 412 0
2019-03-17 11:15:14 GMT 49.301334 3.343169 37,725 307 413 -896
2019-03-17 11:15:11 GMT 49.293095 3.359793 37,800 307 416 -896
2019-03-17 11:15:07 GMT 49.293095 3.359793 37,825 307 415 -960
2019-03-17 11:15:04 GMT 49.289337 3.367803 37,875 307 416 -832
2019-03-17 11:15:01 GMT 49.285786 3.375188 37,950 307 415 -192
2019-03-17 11:14:56 GMT 49.280594 3.385902 38,000 307 416 0
2019-03-17 11:14:53 GMT 49.276939 3.393402 38,000 307 415 0
2019-03-17 11:14:49 GMT 49.272812 3.402170 37,975 307 415 0
2019-03-17 11:14:44 GMT 49.265766 3.417037 38,000 307 415 0
2019-03-17 11:14:39 GMT 49.260086 3.428650 38,000 306 415 0
2019-03-17 11:14:35 GMT 49.257389 3.434818 38,000 307 414 -64
2019-03-17 11:14:31 GMT 49.251480 3.446820 38,000 307 414 -128
2019-03-17 11:14:26 GMT 49.245331 3.459681 38,000 307 414 -128
2019-03-17 11:14:23 GMT 49.242630 3.465536 38,025 307 413 -64
2019-03-17 11:14:20 GMT 49.234222 3.483159 38,025 307 413 -64
2019-03-17 11:14:15 GMT 49.234222 3.483159 38,025 307 413 0
2019-03-17 11:14:12 GMT 49.227631 3.497314 38,025 307 412 0
2019-03-17 11:14:05 GMT 49.222778 3.507174 38,025 307 412 0
2019-03-17 11:14:01 GMT 49.213394 3.526893 38,025 307 412 0
2019-03-17 11:13:57 GMT 49.213394 3.526893 37,975 307 411 0
2019-03-17 11:13:52 GMT 49.208275 3.537309 38,025 307 412 0
2019-03-17 11:13:49 GMT 49.199478 3.555812 38,025 307 405 0
2019-03-17 11:13:44 GMT 49.199478 3.555812 37,975 307 411 0
2019-03-17 11:13:41 GMT 49.195679 3.563937 38,025 307 410 0
2019-03-17 11:13:38 GMT 49.193115 3.569007 38,025 307 411 0
2019-03-17 11:13:35 GMT 49.189236 3.577279 38,025 307 411 64
2019-03-17 11:13:32 GMT 49.184486 3.587036 38,000 307 411 64
2019-03-17 11:13:28 GMT 49.181507 3.593469 38,000 307 406 0
2019-03-17 11:13:23 GMT 49.174385 3.607925 38,000 307 410 0
2019-03-17 11:13:20 GMT 49.172058 3.612912 38,000 307 410 0
2019-03-17 11:13:17 GMT 49.169769 3.617530 38,000 307 405 0
2019-03-17 11:13:14 GMT 49.165512 3.626404 38,000 307 410 0
2019-03-17 11:13:11 GMT 49.162422 3.633150 38,000 307 409 0
2019-03-17 11:13:07 GMT 49.157913 3.642179 38,000 307 409 64
2019-03-17 11:13:01 GMT 49.151482 3.655339 37,975 307 409 0
2019-03-17 11:12:57 GMT 49.146408 3.666109 37,975 307 405 0
2019-03-17 11:12:54 GMT 49.143848 3.671747 37,975 307 409 0
2019-03-17 11:12:49 GMT 49.137608 3.684468 37,975 307 408 0
2019-03-17 11:12:45 GMT 49.134064 3.691829 37,975 307 405 0
2019-03-17 11:12:41 GMT 49.129211 3.701970 37,975 307 407 0
2019-03-17 11:12:38 GMT 49.126160 3.708247 37,975 307 407 0
2019-03-17 11:12:35 GMT 49.121567 3.717745 37,975 307 406 0
2019-03-17 11:12:29 GMT 49.114704 3.731665 37,975 307 406 0
2019-03-17 11:12:23 GMT 49.109028 3.743808 37,975 307 405 0
2019-03-17 11:12:20 GMT 49.105164 3.751614 37,975 307 406 0
2019-03-17 11:12:17 GMT 49.102600 3.756746 37,975 307 404 0
2019-03-17 11:12:14 GMT 49.098877 3.764335 37,975 307 405 0
2019-03-17 11:12:08 GMT 49.092499 3.777924 37,975 307 405 0
2019-03-17 11:12:05 GMT 49.085312 3.792607 37,975 307 404 64
2019-03-17 11:12:02 GMT 49.085312 3.792607 37,975 307 404 0
2019-03-17 11:11:58 GMT 49.081001 3.801559 37,975 307 404 0
2019-03-17 11:11:54 GMT 49.076202 3.811552 37,950 307 404 64
2019-03-17 11:11:47 GMT 49.068924 3.826200 37,950 307 404 -64
2019-03-17 11:11:42 GMT 49.063824 3.836758 37,975 307 403 0
2019-03-17 11:11:39 GMT 49.059868 3.844998 37,975 307 403 0
2019-03-17 11:11:35 GMT 49.055447 3.854322 37,975 307 404 -64
2019-03-17 11:11:32 GMT 49.052261 3.860920 37,975 307 403 0
2019-03-17 11:11:26 GMT 49.045807 3.873982 37,975 307 403 0
2019-03-17 11:11:22 GMT 49.037064 3.892470 37,975 307 402 64
2019-03-17 11:11:19 GMT 49.037064 3.892470 37,975 307 402 64
2019-03-17 11:11:14 GMT 49.032028 3.902532 37,950 307 403 0
2019-03-17 11:11:11 GMT 49.029282 3.908603 37,975 307 402 -64
2019-03-17 11:11:08 GMT 49.025345 3.916556 37,975 307 402 -64
2019-03-17 11:11:05 GMT 49.023148 3.920992 37,975 307 402 -64
2019-03-17 11:10:59 GMT 49.016052 3.935641 38,000 307 401 0
2019-03-17 11:10:56 GMT 49.008007 3.952332 37,975 307 401 0
2019-03-17 11:10:52 GMT 49.008007 3.952332 37,975 307 401 -64
2019-03-17 11:10:48 GMT 49.002960 3.962966 37,975 307 401 0
2019-03-17 11:10:45 GMT 48.999573 3.969515 38,000 307 400 -64
2019-03-17 11:10:42 GMT 48.996601 3.976328 38,000 307 401 -64
2019-03-17 11:10:39 GMT 48.994183 3.980809 38,000 307 401 -64
2019-03-17 11:10:36 GMT 48.990005 3.989586 38,000 307 401 -64
2019-03-17 11:10:31 GMT 48.985012 3.999674 38,000 307 400 0
2019-03-17 11:10:28 GMT 48.982269 4.005432 38,000 307 400 0
2019-03-17 11:10:25 GMT 48.973526 4.022968 38,000 307 399 0
2019-03-17 11:10:20 GMT 48.973526 4.022968 38,000 307 399 0
2019-03-17 11:10:16 GMT 48.968262 4.033673 38,000 307 400 0
2019-03-17 11:10:13 GMT 48.964645 4.041419 38,000 307 400 0
2019-03-17 11:10:07 GMT 48.959221 4.052510 38,000 307 400 0
2019-03-17 11:10:04 GMT 48.955582 4.059941 38,000 307 400 0
2019-03-17 11:10:01 GMT 48.952473 4.066026 38,000 307 399 0
2019-03-17 11:09:57 GMT 48.948303 4.074660 38,000 307 400 0
2019-03-17 11:09:54 GMT 48.943497 4.084731 38,000 307 399 0
2019-03-17 11:09:51 GMT 48.936737 4.098479 38,000 307 399 0
2019-03-17 11:09:47 GMT 48.936737 4.098479 38,000 307 400 0
2019-03-17 11:09:42 GMT 48.931335 4.109248 38,000 307 400 0
2019-03-17 11:09:39 GMT 48.928528 4.115295 38,000 307 400 0
2019-03-17 11:09:36 GMT 48.924545 4.123394 37,975 307 399 -64
2019-03-17 11:09:33 GMT 48.920212 4.132233 38,000 307 400 64
2019-03-17 11:09:26 GMT 48.914154 4.144522 37,975 307 400 0
2019-03-17 11:09:23 GMT 48.910217 4.152550 37,975 307 400 0
2019-03-17 11:09:20 GMT 48.907425 4.158043 37,975 307 399 -64
2019-03-17 11:09:17 GMT 48.903946 4.165649 38,000 307 399 -64
2019-03-17 11:09:13 GMT 48.898331 4.177045 37,975 307 398 0
2019-03-17 11:09:09 GMT 48.894836 4.184101 38,000 307 398 -64
2019-03-17 11:09:06 GMT 48.891674 4.190200 38,000 307 398 -64
2019-03-17 11:09:02 GMT 48.887718 4.198729 38,000 307 399 0
2019-03-17 11:08:59 GMT 48.884079 4.206144 38,000 307 399 0
2019-03-17 11:08:51 GMT 48.874588 4.225183 38,000 307 398 0
2019-03-17 11:08:43 GMT 48.866180 4.242413 38,000 307 399 -128
2019-03-17 11:08:40 GMT 48.860157 4.254672 38,000 307 399 -128
2019-03-17 11:08:34 GMT 48.856853 4.261394 38,000 307 401 64
2019-03-17 11:08:31 GMT 48.852997 4.269245 38,000 307 399 0
2019-03-17 11:08:25 GMT 48.845490 4.284457 38,000 307 400 64
2019-03-17 11:08:21 GMT 48.841736 4.292063 38,000 307 400 64
2019-03-17 11:08:18 GMT 48.838348 4.298753 37,975 307 400 0
2019-03-17 11:08:14 GMT 48.829651 4.316289 37,975 307 402 -64
2019-03-17 11:08:10 GMT 48.829651 4.316289 37,975 307 402 -64
2019-03-17 11:08:07 GMT 48.826500 4.322903 38,000 307 402 -64
2019-03-17 11:07:59 GMT 48.817200 4.341501 38,000 307 402 -64
2019-03-17 11:07:56 GMT 48.814396 4.347117 38,000 307 401 64
2019-03-17 11:07:51 GMT 48.808960 4.358121 37,975 307 400 -64
2019-03-17 11:07:48 GMT 48.805252 4.365727 37,975 307 401 0
2019-03-17 11:07:42 GMT 48.797638 4.380798 37,975 307 402 -64
2019-03-17 11:07:38 GMT 48.790970 4.394461 38,000 307 398 0
2019-03-17 11:07:31 GMT 48.786232 4.404072 38,000 307 398 0
2019-03-17 11:07:28 GMT 48.783051 4.410588 37,975 307 398 256
2019-03-17 11:07:25 GMT 48.780136 4.416143 37,950 307 398 0
2019-03-17 11:07:21 GMT 48.774765 4.426927 37,950 307 398 0
2019-03-17 11:07:17 GMT 48.771515 4.433829 37,950 307 398 -64
2019-03-17 11:07:14 GMT 48.767147 4.442380 37,950 307 398 0
2019-03-17 11:07:08 GMT 48.760757 4.455519 37,950 307 398 0
2019-03-17 11:07:05 GMT 48.757603 4.461967 37,950 307 398 0
2019-03-17 11:07:00 GMT 48.751968 4.473337 37,925 307 398 0
2019-03-17 11:06:57 GMT 48.748619 4.479820 37,925 307 401 -192
2019-03-17 11:06:53 GMT 48.744846 4.487843 37,950 307 398 0
2019-03-17 11:06:50 GMT 48.741451 4.494492 38,000 308 402 -128
2019-03-17 11:06:46 GMT 48.736839 4.503889 37,950 307 399 -64
2019-03-17 11:06:43 GMT 48.734188 4.509165 37,950 307 399 0
2019-03-17 11:06:39 GMT 48.729401 4.518761 37,950 307 401 -128
2019-03-17 11:06:36 GMT 48.725418 4.526790 37,950 307 400 0
2019-03-17 11:06:33 GMT 48.722351 4.532565 37,950 307 400 0
2019-03-17 11:06:29 GMT 48.718094 4.541509 37,950 307 401 0
2019-03-17 11:06:25 GMT 48.712494 4.552243 37,950 307 402 -192
2019-03-17 11:06:22 GMT 48.710678 4.556298 37,950 307 401 -128
2019-03-17 11:06:19 GMT 48.705605 4.566409 37,950 307 402 -192
2019-03-17 11:06:15 GMT 48.698761 4.580287 37,975 308 402 -192
2019-03-17 11:06:09 GMT 48.695023 4.587567 37,975 308 403 64
2019-03-17 11:06:04 GMT 48.689590 4.598646 38,000 308 403 64
2019-03-17 11:06:01 GMT 48.686920 4.603764 38,000 308 407 0
2019-03-17 11:05:56 GMT 48.680698 4.616137 37,975 308 405 0
2019-03-17 11:05:53 GMT 48.673019 4.631532 37,975 308 407 0
2019-03-17 11:05:49 GMT 48.673019 4.631532 37,975 308 406 -64
2019-03-17 11:05:46 GMT 48.669247 4.639049 37,975 307 407 -128
2019-03-17 11:05:43 GMT 48.666412 4.644822 38,000 308 407 0
2019-03-17 11:05:38 GMT 48.660355 4.656685 38,025 308 407 -64
2019-03-17 11:05:33 GMT 48.654491 4.668467 38,000 308 407 0
2019-03-17 11:05:30 GMT 48.651169 4.675316 38,025 308 407 0
2019-03-17 11:05:25 GMT 48.645786 4.686392 38,000 308 409 0
2019-03-17 11:05:22 GMT 48.641968 4.693692 37,975 308 409 0
2019-03-17 11:05:18 GMT 48.638290 4.700847 37,975 307 410 0
2019-03-17 11:05:15 GMT 48.634094 4.709332 38,000 308 411 -64
2019-03-17 11:05:12 GMT 48.630981 4.715592 38,000 308 411 0
2019-03-17 11:05:07 GMT 48.624744 4.727735 38,000 308 411 64
2019-03-17 11:05:04 GMT 48.621719 4.734168 38,000 308 411 64
2019-03-17 11:05:01 GMT 48.618553 4.740528 38,000 308 411 64
2019-03-17 11:04:58 GMT 48.615555 4.746375 37,950 308 411 64
2019-03-17 11:04:54 GMT 48.610359 4.756574 37,975 308 411 0
2019-03-17 11:04:51 GMT 48.606915 4.763368 37,975 308 411 0
2019-03-17 11:04:46 GMT 48.601330 4.775005 38,000 308 411 64
2019-03-17 11:04:43 GMT 48.597794 4.781799 37,975 308 410 64
2019-03-17 11:04:38 GMT 48.591599 4.794087 37,975 308 409 0
2019-03-17 11:04:34 GMT 48.586899 4.803420 37,975 308 409 0
2019-03-17 11:04:29 GMT 48.582413 4.812505 37,950 308 409 -64
2019-03-17 11:04:26 GMT 48.578377 4.820541 37,975 308 408 0
2019-03-17 11:04:23 GMT 48.574585 4.827928 38,000 308 408 0
2019-03-17 11:04:20 GMT 48.569950 4.837092 37,950 307 402 -64
2019-03-17 11:04:15 GMT 48.561619 4.853644 38,050 308 406 64
2019-03-17 11:04:12 GMT 48.561619 4.853644 37,975 308 406 0
2019-03-17 11:04:08 GMT 48.557800 4.861595 37,975 308 404 0
2019-03-17 11:04:05 GMT 48.555054 4.866943 37,975 308 404 0
2019-03-17 11:04:02 GMT 48.550774 4.875400 37,975 307 404 0
2019-03-17 11:03:56 GMT 48.543465 4.890289 37,975 307 402 -64
2019-03-17 11:03:52 GMT 48.533592 4.909949 38,000 308 397 128
2019-03-17 11:03:47 GMT 48.533592 4.909949 38,000 308 400 0
2019-03-17 11:03:42 GMT 48.529217 4.918839 38,000 308 399 64
2019-03-17 11:03:37 GMT 48.523727 4.929692 37,950 308 396 64
2019-03-17 11:03:34 GMT 48.519398 4.938282 37,950 308 396 64
2019-03-17 11:03:30 GMT 48.516090 4.944643 37,950 308 396 0
2019-03-17 11:03:27 GMT 48.512367 4.952015 37,950 308 396 0
2019-03-17 11:03:23 GMT 48.508316 4.959893 37,950 308 396 64
2019-03-17 11:03:20 GMT 48.504822 4.966877 37,975 308 397 0
2019-03-17 11:03:13 GMT 48.496819 4.982878 37,950 308 398 -128
2019-03-17 11:03:09 GMT 48.492828 4.990540 38,000 308 400 0
2019-03-17 11:03:06 GMT 48.488388 4.999484 37,950 308 397 -256
2019-03-17 11:03:03 GMT 48.484062 5.007886 37,975 308 398 -192
2019-03-17 11:02:59 GMT 48.481174 5.013669 37,975 308 399 0
2019-03-17 11:02:55 GMT 48.475296 5.025470 37,975 308 399 -64
2019-03-17 11:02:52 GMT 48.473167 5.029498 38,000 308 399 -64
2019-03-17 11:02:49 GMT 48.469986 5.035893 38,000 308 399 0
2019-03-17 11:02:42 GMT 48.461300 5.053422 37,975 308 400 64
2019-03-17 11:02:39 GMT 48.458725 5.058007 38,000 308 400 0
2019-03-17 11:02:35 GMT 48.449661 5.076045 37,975 308 401 -128
2019-03-17 11:02:31 GMT 48.449661 5.076045 38,000 308 402 -64
2019-03-17 11:02:28 GMT 48.446449 5.082116 38,000 308 402 -64
2019-03-17 11:02:25 GMT 48.443115 5.089064 38,000 308 403 0
2019-03-17 11:02:21 GMT 48.439049 5.096861 37,975 308 408 0
2019-03-17 11:02:18 GMT 48.435791 5.103290 38,000 308 404 64
2019-03-17 11:02:12 GMT 48.427036 5.120496 37,975 308 405 0
2019-03-17 11:02:08 GMT 48.423824 5.126857 37,975 308 386 -128
2019-03-17 11:02:05 GMT 48.420456 5.133080 37,975 308 407 -64
2019-03-17 11:02:02 GMT 48.417072 5.139795 38,000 308 407 -64
2019-03-17 11:01:58 GMT 48.412884 5.148251 38,000 308 386 -128
2019-03-17 11:01:54 GMT 48.408367 5.157214 38,000 308 406 -64
2019-03-17 11:01:51 GMT 48.404922 5.163936 38,000 308 406 -64
2019-03-17 11:01:48 GMT 48.401642 5.170405 38,000 308 408 0
2019-03-17 11:01:45 GMT 48.396172 5.180921 38,000 308 406 64
2019-03-17 11:01:40 GMT 48.392307 5.188510 38,000 308 406 64
2019-03-17 11:01:37 GMT 48.388493 5.196172 37,975 308 407 0
2019-03-17 11:01:33 GMT 48.383148 5.206181 37,975 308 408 0
2019-03-17 11:01:29 GMT 48.378483 5.215398 37,975 308 408 0
2019-03-17 11:01:25 GMT 48.366192 5.239683 37,975 308 408 0
2019-03-17 11:01:18 GMT 48.366192 5.239683 37,975 308 406 0
2019-03-17 11:01:14 GMT 48.361443 5.248574 37,975 308 408 0
2019-03-17 11:01:11 GMT 48.358017 5.255690 38,000 308 407 0
2019-03-17 11:01:07 GMT 48.353905 5.263969 38,000 308 406 0
2019-03-17 11:01:03 GMT 48.345245 5.280691 37,975 308 387 0
2019-03-17 11:00:59 GMT 48.345245 5.280691 38,000 308 398 0
2019-03-17 11:00:56 GMT 48.341614 5.288038 38,000 308 403 0
2019-03-17 11:00:53 GMT 48.336632 5.297795 38,000 308 402 0
2019-03-17 11:00:48 GMT 48.327438 5.315833 37,975 308 399 0
2019-03-17 11:00:44 GMT 48.327438 5.315833 37,975 308 399 0
2019-03-17 11:00:41 GMT 48.320480 5.329285 37,975 308 387 0
2019-03-17 11:00:37 GMT 48.320480 5.329285 37,975 308 397 -64
2019-03-17 11:00:34 GMT 48.317871 5.334224 37,975 308 397 0
2019-03-17 11:00:31 GMT 48.312611 5.344849 37,975 308 395 0
2019-03-17 11:00:27 GMT 48.309036 5.351398 38,000 308 395 0
2019-03-17 11:00:23 GMT 48.303360 5.362807 38,000 308 392 64
2019-03-17 11:00:16 GMT 48.296642 5.375856 37,950 308 390 192
2019-03-17 11:00:12 GMT 48.291000 5.386822 37,950 308 390 0
2019-03-17 11:00:08 GMT 48.287750 5.392986 37,950 308 389 0
2019-03-17 11:00:04 GMT 48.283356 5.401259 37,975 308 386 -128
2019-03-17 11:00:00 GMT 48.279278 5.409610 37,950 308 387 -64
2019-03-17 10:59:55 GMT 48.273785 5.420235 37,950 308 388 -64
2019-03-17 10:59:52 GMT 48.268799 5.429852 37,950 308 387 0
2019-03-17 10:59:49 GMT 48.266922 5.433303 37,950 308 387 0
2019-03-17 10:59:42 GMT 48.258316 5.450205 37,950 308 386 -64
2019-03-17 10:59:37 GMT 48.250397 5.465628 37,950 308 386 -64
2019-03-17 10:59:34 GMT 48.250397 5.465628 37,950 308 386 -128
2019-03-17 10:59:31 GMT 48.247101 5.472037 37,975 308 389 0
2019-03-17 10:59:28 GMT 48.243946 5.477986 37,975 308 386 -64
2019-03-17 10:59:25 GMT 48.240875 5.483985 37,975 308 386 -128
2019-03-17 10:59:22 GMT 48.237244 5.491140 37,975 308 386 -64
2019-03-17 10:59:19 GMT 48.233505 5.498516 38,000 308 389 0
2019-03-17 10:59:13 GMT 48.227737 5.509573 38,000 308 386 -64
2019-03-17 10:59:08 GMT 48.222347 5.520485 38,000 308 389 0
2019-03-17 10:59:02 GMT 48.212570 5.539205 38,000 308 387 -64
2019-03-17 10:58:59 GMT 48.212570 5.539205 38,000 308 387 -64
2019-03-17 10:58:56 GMT 48.205402 5.553444 38,000 308 387 -64
2019-03-17 10:58:53 GMT 48.201004 5.561688 38,000 308 387 -64
2019-03-17 10:58:48 GMT 48.201004 5.561688 38,025 308 389 0
2019-03-17 10:58:42 GMT 48.194321 5.574364 38,000 308 389 64
2019-03-17 10:58:39 GMT 48.191109 5.580910 38,025 308 388 0
2019-03-17 10:58:36 GMT 48.187225 5.588520 38,025 308 387 0
2019-03-17 10:58:33 GMT 48.184315 5.594282 38,025 308 387 0
2019-03-17 10:58:30 GMT 48.180725 5.600703 38,025 308 388 0
2019-03-17 10:58:27 GMT 48.177200 5.607464 38,025 308 389 0
2019-03-17 10:58:23 GMT 48.172859 5.616254 38,025 308 389 0
2019-03-17 10:58:20 GMT 48.169693 5.622324 38,025 308 389 64
2019-03-17 10:58:14 GMT 48.162231 5.636831 38,025 308 389 -64
2019-03-17 10:58:11 GMT 48.160309 5.640656 38,025 308 389 0
2019-03-17 10:58:08 GMT 48.156380 5.648029 38,025 308 389 0
2019-03-17 10:58:04 GMT 48.152023 5.656311 38,025 308 389 64
2019-03-17 10:58:00 GMT 48.148048 5.663804 38,025 308 389 64
2019-03-17 10:57:56 GMT 48.143234 5.673340 38,000 308 389 64
2019-03-17 10:57:53 GMT 48.139709 5.680138 38,000 308 390 0
2019-03-17 10:57:46 GMT 48.131012 5.697166 38,000 308 390 0
2019-03-17 10:57:42 GMT 48.128220 5.702385 38,000 308 390 -64
2019-03-17 10:57:39 GMT 48.124329 5.710007 38,025 308 390 0
2019-03-17 10:57:35 GMT 48.119568 5.719276 38,000 308 389 0
2019-03-17 10:57:32 GMT 48.116764 5.724581 38,000 308 389 0
2019-03-17 10:57:28 GMT 48.112381 5.732941 38,000 307 388 0
2019-03-17 10:57:25 GMT 48.108944 5.739582 37,975 308 390 0
2019-03-17 10:57:22 GMT 48.105652 5.746124 38,000 307 389 0
2019-03-17 10:57:19 GMT 48.102753 5.751624 38,000 304 384 0
2019-03-17 10:57:16 GMT 48.100433 5.756905 38,000 305 386 -64
2019-03-17 10:57:13 GMT 48.096607 5.764512 38,000 305 386 -64
2019-03-17 10:57:10 GMT 48.090820 5.777504 38,000 302 381 64
2019-03-17 10:57:03 GMT 48.082687 5.796344 38,000 299 378 0
2019-03-17 10:56:59 GMT 48.082687 5.796344 38,000 301 381 64
2019-03-17 10:56:55 GMT 48.079468 5.804283 37,975 301 380 0
2019-03-17 10:56:49 GMT 48.071548 5.825363 37,975 298 378 0
2019-03-17 10:56:46 GMT 48.071548 5.825363 37,975 298 377 -320
2019-03-17 10:56:42 GMT 48.068119 5.835290 37,975 298 377 -64
2019-03-17 10:56:39 GMT 48.065605 5.843318 37,975 298 377 -64
2019-03-17 10:56:36 GMT 48.063080 5.849808 38,000 298 377 0
2019-03-17 10:56:31 GMT 48.059692 5.859727 38,000 298 375 64
2019-03-17 10:56:28 GMT 48.056946 5.867615 38,000 298 377 0
2019-03-17 10:56:24 GMT 48.048935 5.890388 38,000 298 376 0
2019-03-17 10:56:19 GMT 48.048935 5.890388 38,000 298 375 0
2019-03-17 10:56:15 GMT 48.045540 5.899869 38,000 298 376 0
2019-03-17 10:56:11 GMT 48.042435 5.908653 38,025 298 376 0
2019-03-17 10:56:08 GMT 48.040466 5.914352 38,000 298 375 64
2019-03-17 10:56:04 GMT 48.037022 5.924730 38,000 298 376 64
2019-03-17 10:56:00 GMT 48.034599 5.931420 37,975 298 376 -64
2019-03-17 10:55:57 GMT 48.032318 5.938179 37,975 298 377 -192
2019-03-17 10:55:53 GMT 48.029060 5.947266 37,975 298 377 -192
2019-03-17 10:55:49 GMT 48.026314 5.955012 38,000 298 377 -384
2019-03-17 10:55:46 GMT 48.023430 5.963393 38,050 298 376 -64
2019-03-17 10:55:42 GMT 48.020279 5.972649 38,050 298 376 0
2019-03-17 10:55:39 GMT 48.017609 5.980225 38,050 298 376 0
2019-03-17 10:55:36 GMT 48.015106 5.987549 38,050 298 376 0
2019-03-17 10:55:32 GMT 48.012131 5.995651 38,025 298 376 0
2019-03-17 10:55:29 GMT 48.009659 6.002998 38,025 298 377 -64
2019-03-17 10:55:25 GMT 48.006500 6.012268 38,025 298 377 0
2019-03-17 10:55:22 GMT 48.004017 6.019381 38,050 298 376 0
2019-03-17 10:55:19 GMT 48.001328 6.026962 38,050 298 376 0
2019-03-17 10:55:16 GMT 47.999176 6.033554 38,050 298 376 0
2019-03-17 10:55:10 GMT 47.995079 6.044804 38,025 298 377 64
2019-03-17 10:55:06 GMT 47.988190 6.064659 38,025 298 377 0
2019-03-17 10:55:02 GMT 47.988190 6.064659 38,025 298 377 -64
2019-03-17 10:54:59 GMT 47.982193 6.081276 38,050 298 377 -64
2019-03-17 10:54:55 GMT 47.982193 6.081276 38,025 298 377 -64
2019-03-17 10:54:52 GMT 47.979034 6.090546 38,025 298 377 0
2019-03-17 10:54:48 GMT 47.976688 6.097271 38,025 298 376 128
2019-03-17 10:54:44 GMT 47.973709 6.105300 38,025 298 376 128
2019-03-17 10:54:41 GMT 47.968231 6.121170 38,025 298 376 128
2019-03-17 10:54:37 GMT 47.968231 6.121170 38,000 298 376 64
2019-03-17 10:54:34 GMT 47.965656 6.128329 38,000 298 376 128
2019-03-17 10:54:29 GMT 47.960770 6.142484 38,000 298 376 64
2019-03-17 10:54:26 GMT 47.958858 6.148048 37,975 298 376 64
2019-03-17 10:54:23 GMT 47.956997 6.153611 37,975 298 376 0
2019-03-17 10:54:20 GMT 47.954578 6.160513 37,975 298 375 0
2019-03-17 10:54:17 GMT 47.948990 6.176007 37,975 298 376 0
2019-03-17 10:54:14 GMT 47.948990 6.176007 37,975 298 375 0
2019-03-17 10:54:10 GMT 47.946293 6.183613 37,975 298 375 0
2019-03-17 10:54:07 GMT 47.943081 6.192768 37,975 299 374 0
2019-03-17 10:54:04 GMT 47.941216 6.198472 37,975 298 374 -64
2019-03-17 10:54:01 GMT 47.938656 6.205796 37,975 298 371 0
2019-03-17 10:53:56 GMT 47.933945 6.218674 37,975 298 370 64
2019-03-17 10:53:52 GMT 47.931198 6.226295 37,975 298 372 -64
2019-03-17 10:53:49 GMT 47.929688 6.230965 38,000 298 369 128
2019-03-17 10:53:46 GMT 47.926300 6.240372 38,000 298 370 64
2019-03-17 10:53:43 GMT 47.924881 6.244835 37,975 298 369 128
2019-03-17 10:53:37 GMT 47.920406 6.257066 37,975 298 369 0
2019-03-17 10:53:33 GMT 47.916092 6.269554 37,975 298 368 0
2019-03-17 10:53:30 GMT 47.914215 6.274017 37,950 298 368 0
2019-03-17 10:53:26 GMT 47.911098 6.283194 37,950 298 368 0
2019-03-17 10:53:23 GMT 47.907841 6.292138 37,975 298 367 -64
2019-03-17 10:53:20 GMT 47.906296 6.296814 37,975 298 367 -64
2019-03-17 10:53:16 GMT 47.902905 6.306434 37,975 298 366 0
2019-03-17 10:53:13 GMT 47.900848 6.312469 37,975 298 366 0
2019-03-17 10:53:10 GMT 47.898018 6.319744 37,975 298 365 64
2019-03-17 10:53:06 GMT 47.895317 6.327280 37,975 298 365 64
2019-03-17 10:53:03 GMT 47.892746 6.335266 37,950 298 365 0
2019-03-17 10:53:00 GMT 47.890102 6.341999 37,950 298 365 0
2019-03-17 10:52:57 GMT 47.886986 6.350872 37,975 298 365 -64
2019-03-17 10:52:54 GMT 47.884888 6.356999 37,950 299 365 -128
2019-03-17 10:52:51 GMT 47.882492 6.364037 37,975 300 365 0
2019-03-17 10:52:48 GMT 47.880386 6.369255 37,975 301 366 0
2019-03-17 10:52:43 GMT 47.876465 6.379535 37,950 308 376 0
2019-03-17 10:52:40 GMT 47.873840 6.385735 37,950 305 371 64
2019-03-17 10:52:37 GMT 47.871368 6.391914 37,950 311 379 0
2019-03-17 10:52:34 GMT 47.867569 6.400360 37,950 308 376 0
2019-03-17 10:52:31 GMT 47.865757 6.404043 37,950 307 374 0
2019-03-17 10:52:28 GMT 47.861614 6.412424 37,950 311 380 0
2019-03-17 10:52:25 GMT 47.858322 6.418900 37,950 308 377 0
2019-03-17 10:52:22 GMT 47.852814 6.429185 37,950 311 380 0
2019-03-17 10:52:19 GMT 47.852814 6.429185 37,950 311 380 0
2019-03-17 10:52:16 GMT 47.849556 6.435171 37,950 311 380 0
2019-03-17 10:52:13 GMT 47.845093 6.442863 37,950 311 380 0
2019-03-17 10:52:10 GMT 47.841660 6.448837 37,950 311 380 0
2019-03-17 10:52:07 GMT 47.839005 6.453163 37,950 311 379 0
2019-03-17 10:52:03 GMT 47.834148 6.461651 37,950 311 380 0
2019-03-17 10:52:00 GMT 47.831726 6.465797 37,950 311 380 0
2019-03-17 10:51:57 GMT 47.828247 6.471771 37,950 311 380 0
2019-03-17 10:51:54 GMT 47.824173 6.478844 37,950 311 380 0
2019-03-17 10:51:50 GMT 47.819855 6.486089 37,950 311 380 0
2019-03-17 10:51:46 GMT 47.815796 6.493057 37,950 311 379 0
2019-03-17 10:51:43 GMT 47.811493 6.500610 37,975 311 379 -64
2019-03-17 10:51:40 GMT 47.808060 6.506447 37,950 311 379 0
2019-03-17 10:51:37 GMT 47.803471 6.514540 37,950 311 379 0
2019-03-17 10:51:34 GMT 47.801327 6.518062 37,950 311 379 0
2019-03-17 10:51:30 GMT 47.795700 6.527664 37,950 311 379 -64
2019-03-17 10:51:27 GMT 47.793823 6.531166 37,950 311 379 -64
2019-03-17 10:51:24 GMT 47.790295 6.537429 37,975 311 379 0
2019-03-17 10:51:21 GMT 47.786476 6.543626 37,975 311 380 -64
2019-03-17 10:51:18 GMT 47.782928 6.549774 37,975 311 379 0
2019-03-17 10:51:15 GMT 47.779495 6.555679 37,975 311 379 0
2019-03-17 10:51:11 GMT 47.774963 6.563576 37,975 311 379 0
2019-03-17 10:51:08 GMT 47.766319 6.578416 37,950 311 379 0
2019-03-17 10:51:04 GMT 47.766319 6.578416 37,950 311 379 0
2019-03-17 10:51:01 GMT 47.762688 6.584614 37,950 311 379 0
2019-03-17 10:50:58 GMT 47.759216 6.590836 37,950 311 380 -64
2019-03-17 10:50:55 GMT 47.756516 6.595573 37,975 311 380 -128
2019-03-17 10:50:52 GMT 47.753311 6.601067 37,975 311 380 0
2019-03-17 10:50:49 GMT 47.749466 6.607796 37,975 311 380 -64
2019-03-17 10:50:46 GMT 47.746349 6.613136 37,975 311 380 -64
2019-03-17 10:50:43 GMT 47.743195 6.618507 37,975 311 380 -64
2019-03-17 10:50:40 GMT 47.739761 6.624344 37,975 311 380 0
2019-03-17 10:50:37 GMT 47.735828 6.631235 37,975 311 380 0
2019-03-17 10:50:34 GMT 47.732300 6.637390 37,975 311 379 0
2019-03-17 10:50:31 GMT 47.729729 6.641587 37,975 311 380 0
2019-03-17 10:50:28 GMT 47.726147 6.647785 37,975 311 380 0
2019-03-17 10:50:25 GMT 47.718884 6.660461 37,975 311 380 0
2019-03-17 10:50:22 GMT 47.718884 6.660461 37,975 311 380 0
2019-03-17 10:50:19 GMT 47.716045 6.665743 37,975 311 380 0
2019-03-17 10:50:16 GMT 47.712296 6.672203 37,975 311 380 0
2019-03-17 10:50:13 GMT 47.707443 6.680580 37,975 311 380 0
2019-03-17 10:50:09 GMT 47.703781 6.686760 38,000 311 380 0
2019-03-17 10:50:05 GMT 47.700119 6.693283 37,975 311 380 0
2019-03-17 10:50:02 GMT 47.696167 6.700040 37,975 311 380 0
2019-03-17 10:49:58 GMT 47.690781 6.709557 37,975 311 380 0
2019-03-17 10:49:55 GMT 47.687599 6.715182 37,975 311 380 0
2019-03-17 10:49:51 GMT 47.684418 6.720680 37,975 311 380 0
2019-03-17 10:49:48 GMT 47.680290 6.727999 37,975 311 380 -64
2019-03-17 10:49:44 GMT 47.675858 6.735786 37,975 311 380 0
2019-03-17 10:49:41 GMT 47.672333 6.741943 37,975 311 380 0
2019-03-17 10:49:38 GMT 47.669678 6.746773 38,000 310 381 0
2019-03-17 10:49:35 GMT 47.666153 6.752747 37,975 310 381 0
2019-03-17 10:49:29 GMT 47.658234 6.766960 37,975 310 381 -64
2019-03-17 10:49:25 GMT 47.654083 6.774269 38,000 310 381 0
2019-03-17 10:49:22 GMT 47.650917 6.779832 38,000 310 381 -64
2019-03-17 10:49:19 GMT 47.646774 6.786945 37,975 310 381 -64
2019-03-17 10:49:16 GMT 47.641140 6.797157 38,000 310 381 0
2019-03-17 10:49:09 GMT 47.636253 6.805819 38,000 310 381 0
2019-03-17 10:49:06 GMT 47.633041 6.811383 38,000 310 381 64
2019-03-17 10:49:03 GMT 47.630493 6.816055 38,000 310 382 0
2019-03-17 10:49:00 GMT 47.626339 6.823425 37,975 310 382 0
2019-03-17 10:48:57 GMT 47.619541 6.835398 37,975 309 387 0
2019-03-17 10:48:54 GMT 47.619541 6.835398 37,975 310 382 0
2019-03-17 10:48:51 GMT 47.616653 6.840679 37,975 310 382 0
2019-03-17 10:48:47 GMT 47.611954 6.848877 38,000 310 382 0
2019-03-17 10:48:44 GMT 47.608414 6.855539 37,975 310 382 0
2019-03-17 10:48:41 GMT 47.604721 6.861717 37,975 310 382 0
2019-03-17 10:48:38 GMT 47.601608 6.867348 37,975 310 382 0
2019-03-17 10:48:34 GMT 47.597149 6.875188 38,000 310 383 0
2019-03-17 10:48:31 GMT 47.594124 6.880681 38,000 310 382 0
2019-03-17 10:48:28 GMT 47.590027 6.887810 38,000 310 382 0
2019-03-17 10:48:25 GMT 47.586639 6.894058 38,000 310 382 0
2019-03-17 10:48:22 GMT 47.582840 6.900925 37,975 310 385 -64
2019-03-17 10:48:19 GMT 47.579784 6.906175 38,000 310 383 0
2019-03-17 10:48:16 GMT 47.576523 6.911980 38,000 310 383 64
2019-03-17 10:48:13 GMT 47.573090 6.918297 38,000 310 383 64
2019-03-17 10:48:10 GMT 47.566658 6.929556 37,975 310 383 0
2019-03-17 10:48:07 GMT 47.566658 6.929556 37,975 310 383 0
2019-03-17 10:48:03 GMT 47.561417 6.939171 37,975 310 385 -128
2019-03-17 10:48:00 GMT 47.555115 6.950613 38,000 310 385 0
2019-03-17 10:47:57 GMT 47.555115 6.950613 37,975 310 385 -128
2019-03-17 10:47:54 GMT 47.551163 6.957504 38,000 310 385 -64
2019-03-17 10:47:51 GMT 47.544498 6.969698 38,000 310 385 0
2019-03-17 10:47:48 GMT 47.544498 6.969698 38,000 310 385 0
2019-03-17 10:47:45 GMT 47.538483 6.980438 38,000 310 385 0
2019-03-17 10:47:42 GMT 47.538483 6.980438 37,975 310 385 0
2019-03-17 10:47:39 GMT 47.535141 6.986530 37,975 310 385 -64
2019-03-17 10:47:36 GMT 47.531605 6.992516 37,975 310 385 -64
2019-03-17 10:47:33 GMT 47.527832 6.999488 38,000 310 385 0
2019-03-17 10:47:30 GMT 47.524292 7.005707 38,000 310 386 0
2019-03-17 10:47:27 GMT 47.521317 7.011108 38,000 310 385 0
2019-03-17 10:47:22 GMT 47.514660 7.023433 38,000 310 385 0
2019-03-17 10:47:18 GMT 47.511292 7.029259 38,000 310 385 0
2019-03-17 10:47:15 GMT 47.507721 7.035828 38,000 310 386 0
2019-03-17 10:47:12 GMT 47.503487 7.043504 37,975 309 386 0
2019-03-17 10:47:08 GMT 47.498833 7.052096 37,975 309 386 0
2019-03-17 10:47:02 GMT 47.493198 7.062378 37,975 309 386 0
2019-03-17 10:46:59 GMT 47.490417 7.067505 37,975 309 386 0
2019-03-17 10:46:56 GMT 47.486160 7.075333 37,975 309 387 -64
2019-03-17 10:46:53 GMT 47.481792 7.083435 37,975 309 388 0
2019-03-17 10:46:50 GMT 47.479744 7.087097 37,975 309 387 0
2019-03-17 10:46:47 GMT 47.476486 7.093295 37,975 309 387 0
2019-03-17 10:46:44 GMT 47.473801 7.098061 37,975 309 387 0
2019-03-17 10:46:41 GMT 47.469131 7.106887 37,975 309 389 0
2019-03-17 10:46:37 GMT 47.461914 7.120127 38,025 309 389 64
2019-03-17 10:46:30 GMT 47.457680 7.128014 37,950 309 389 64
2019-03-17 10:46:27 GMT 47.454235 7.134212 37,950 309 389 0
2019-03-17 10:46:24 GMT 47.450775 7.140633 37,950 309 389 0
2019-03-17 10:46:20 GMT 47.445343 7.150621 37,950 309 389 -64
2019-03-17 10:46:17 GMT 47.441803 7.157249 37,950 309 389 -64
2019-03-17 10:46:14 GMT 47.438919 7.162804 37,975 309 392 -192
2019-03-17 10:46:10 GMT 47.434448 7.171114 37,975 309 390 0
2019-03-17 10:46:06 GMT 47.429855 7.179222 37,975 309 391 0
2019-03-17 10:46:03 GMT 47.427326 7.183932 37,950 309 391 0
2019-03-17 10:46:00 GMT 47.423183 7.191467 37,950 309 391 0
2019-03-17 10:45:57 GMT 47.421066 7.195358 37,950 309 391 0
2019-03-17 10:45:54 GMT 47.417366 7.202313 38,000 309 392 -256
2019-03-17 10:45:51 GMT 47.413422 7.209435 37,975 309 392 -192
2019-03-17 10:45:48 GMT 47.409870 7.216116 38,000 309 393 -64
2019-03-17 10:45:45 GMT 47.406326 7.222549 38,000 309 393 -192
2019-03-17 10:45:42 GMT 47.403214 7.228722 38,025 309 394 0
2019-03-17 10:45:39 GMT 47.399780 7.234703 38,000 309 393 -128
2019-03-17 10:45:36 GMT 47.396072 7.241295 38,000 309 393 -128
2019-03-17 10:45:33 GMT 47.393738 7.245964 38,025 309 394 -64
2019-03-17 10:45:29 GMT 47.388748 7.255028 38,025 309 394 0
2019-03-17 10:45:26 GMT 47.384583 7.262787 38,025 309 394 0
2019-03-17 10:45:23 GMT 47.382313 7.266893 38,025 309 394 0
2019-03-17 10:45:20 GMT 47.376938 7.276588 38,000 309 394 0
2019-03-17 10:45:17 GMT 47.373653 7.282527 38,000 309 395 -64
2019-03-17 10:45:13 GMT 47.370300 7.288536 38,000 309 395 -128
2019-03-17 10:45:09 GMT 47.365646 7.297105 38,000 303 392 64
2019-03-17 10:45:06 GMT 47.358753 7.309711 38,025 309 395 0
2019-03-17 10:45:03 GMT 47.358753 7.309711 38,025 309 396 0
2019-03-17 10:45:00 GMT 47.355309 7.316049 38,025 309 396 64
2019-03-17 10:44:57 GMT 47.351944 7.322525 38,025 309 396 64
2019-03-17 10:44:54 GMT 47.348606 7.328796 38,025 309 396 64
2019-03-17 10:44:51 GMT 47.345207 7.335135 38,025 306 394 0
2019-03-17 10:44:48 GMT 47.341763 7.341473 38,000 309 398 -64
2019-03-17 10:44:45 GMT 47.338924 7.346473 38,025 303 393 -128
2019-03-17 10:44:42 GMT 47.334686 7.354572 38,000 308 398 -64
2019-03-17 10:44:39 GMT 47.331383 7.360629 38,000 308 397 -64
2019-03-17 10:44:36 GMT 47.327545 7.368050 38,025 306 395 0
2019-03-17 10:44:31 GMT 47.319260 7.385696 38,000 303 392 -64
2019-03-17 10:44:28 GMT 47.319260 7.385696 38,000 303 392 -64
2019-03-17 10:44:25 GMT 47.316395 7.392109 38,000 304 394 0
2019-03-17 10:44:22 GMT 47.313263 7.398949 38,000 303 393 0
2019-03-17 10:44:19 GMT 47.310333 7.405884 38,000 303 393 -64
2019-03-17 10:44:16 GMT 47.307770 7.411652 38,000 303 393 -128
2019-03-17 10:44:13 GMT 47.305126 7.418307 38,000 303 393 -128
2019-03-17 10:44:10 GMT 47.301086 7.427444 38,025 303 393 0
2019-03-17 10:44:06 GMT 47.298378 7.433589 38,000 303 392 64
2019-03-17 10:44:03 GMT 47.294933 7.441618 38,025 303 392 0
2019-03-17 10:44:00 GMT 47.292187 7.448519 38,025 303 392 0
2019-03-17 10:43:57 GMT 47.288910 7.456078 38,000 303 392 64
2019-03-17 10:43:54 GMT 47.286785 7.460984 38,000 303 392 0
2019-03-17 10:43:51 GMT 47.284012 7.467613 38,000 303 392 0
2019-03-17 10:43:48 GMT 47.281311 7.473587 38,000 303 392 0
2019-03-17 10:43:45 GMT 47.277706 7.481830 38,000 303 393 0
2019-03-17 10:43:41 GMT 47.273052 7.493028 38,000 303 393 0
2019-03-17 10:43:38 GMT 47.270874 7.497894 38,025 303 394 -128
2019-03-17 10:43:35 GMT 47.268166 7.504366 38,000 303 394 -64
2019-03-17 10:43:32 GMT 47.265697 7.510353 38,000 303 394 0
2019-03-17 10:43:29 GMT 47.262344 7.517958 38,000 303 395 -128
2019-03-17 10:43:25 GMT 47.257462 7.529068 38,000 303 394 -64
2019-03-17 10:43:22 GMT 47.255501 7.533875 38,000 303 394 -128
2019-03-17 10:43:19 GMT 47.252384 7.541340 38,000 303 394 0
2019-03-17 10:43:14 GMT 47.247482 7.552551 38,000 303 395 -128
2019-03-17 10:43:11 GMT 47.245514 7.557220 38,025 303 394 0
2019-03-17 10:43:08 GMT 47.242493 7.564430 38,025 303 394 0
2019-03-17 10:43:05 GMT 47.238190 7.574043 38,025 303 394 0
2019-03-17 10:43:02 GMT 47.235764 7.579674 38,000 303 395 0
2019-03-17 10:42:57 GMT 47.231575 7.589088 38,000 303 395 0
2019-03-17 10:42:54 GMT 47.227844 7.598557 38,000 303 395 0
2019-03-17 10:42:51 GMT 47.225662 7.602962 38,000 303 395 0
2019-03-17 10:42:48 GMT 47.222031 7.611397 38,000 303 395 0
2019-03-17 10:42:43 GMT 47.217377 7.622540 38,000 303 395 0
2019-03-17 10:42:40 GMT 47.214935 7.628494 38,025 303 396 0
2019-03-17 10:42:37 GMT 47.211510 7.636414 38,025 303 396 0
2019-03-17 10:42:33 GMT 47.207886 7.644768 38,025 303 396 64
2019-03-17 10:42:30 GMT 47.205086 7.651203 38,025 303 396 64
2019-03-17 10:42:27 GMT 47.202152 7.658175 38,000 303 396 64
2019-03-17 10:42:23 GMT 47.197403 7.668732 38,000 303 397 0
2019-03-17 10:42:20 GMT 47.194332 7.675922 38,000 303 397 0
2019-03-17 10:42:16 GMT 47.191681 7.682602 38,000 303 397 0
2019-03-17 10:42:12 GMT 47.187149 7.692490 38,000 303 398 0
2019-03-17 10:42:09 GMT 47.184277 7.699585 38,000 303 398 -64
2019-03-17 10:42:06 GMT 47.178589 7.711990 38,000 303 397 64
2019-03-17 10:42:00 GMT 47.175110 7.720230 38,025 303 398 0
2019-03-17 10:41:57 GMT 47.171860 7.727852 38,025 303 398 0
2019-03-17 10:41:54 GMT 47.169147 7.734586 38,025 300 394 0
2019-03-17 10:41:51 GMT 47.165863 7.742203 38,025 303 397 64
2019-03-17 10:41:48 GMT 47.163666 7.746666 38,025 303 397 64
2019-03-17 10:41:45 GMT 47.160553 7.753944 38,025 303 397 64
2019-03-17 10:41:41 GMT 47.156345 7.763813 38,000 303 398 0
2019-03-17 10:41:38 GMT 47.154530 7.768250 38,000 303 398 0
2019-03-17 10:41:35 GMT 47.151039 7.776489 38,000 303 399 0
2019-03-17 10:41:32 GMT 47.148376 7.782303 38,000 303 399 -64
2019-03-17 10:41:29 GMT 47.140751 7.799730 38,025 303 399 -64
2019-03-17 10:41:26 GMT 47.140751 7.799730 38,000 303 399 -64
2019-03-17 10:41:23 GMT 47.138844 7.804518 38,025 303 399 -64
2019-03-17 10:41:20 GMT 47.136108 7.810455 38,025 303 399 0
2019-03-17 10:41:17 GMT 47.129810 7.824801 38,025 303 399 0
2019-03-17 10:41:14 GMT 47.129810 7.824801 38,025 303 399 0
2019-03-17 10:41:11 GMT 47.126495 7.832428 38,025 303 399 0
2019-03-17 10:41:08 GMT 47.123714 7.839449 38,000 303 399 0
2019-03-17 10:41:05 GMT 47.121094 7.844856 38,000 303 400 0
2019-03-17 10:41:02 GMT 47.115051 7.858795 38,000 303 400 0
2019-03-17 10:40:59 GMT 47.115051 7.858795 38,000 303 400 0
2019-03-17 10:40:56 GMT 47.112076 7.865788 38,000 303 400 0
2019-03-17 10:40:53 GMT 47.109608 7.871563 38,000 303 399 0
2019-03-17 10:40:50 GMT 47.105602 7.880578 38,000 303 398 0
2019-03-17 10:40:47 GMT 47.103607 7.885849 38,000 302 399 0
2019-03-17 10:40:44 GMT 47.097015 7.901436 37,975 300 394 0
2019-03-17 10:40:41 GMT 47.097015 7.901436 37,975 300 396 64
2019-03-17 10:40:38 GMT 47.094383 7.908466 37,975 300 395 0
2019-03-17 10:40:35 GMT 47.091640 7.915368 37,975 300 394 0
2019-03-17 10:40:32 GMT 47.087219 7.927322 37,975 300 394 0
2019-03-17 10:40:26 GMT 47.083492 7.937270 37,975 299 394 0
2019-03-17 10:40:23 GMT 47.082233 7.940510 37,975 299 394 0
2019-03-17 10:40:20 GMT 47.078110 7.951012 37,975 299 394 0
2019-03-17 10:40:17 GMT 47.077057 7.954308 37,975 299 394 0
2019-03-17 10:40:14 GMT 47.073807 7.962685 37,975 299 394 -64
2019-03-17 10:40:11 GMT 47.071110 7.969313 37,975 300 393 0
2019-03-17 10:40:08 GMT 47.067398 7.979439 37,975 299 394 0
2019-03-17 10:40:05 GMT 47.065243 7.985159 37,975 300 393 0
2019-03-17 10:39:59 GMT 47.059250 8.000862 37,975 300 393 0
2019-03-17 10:39:56 GMT 47.057785 8.005051 37,975 300 393 0
2019-03-17 10:39:53 GMT 47.055130 8.011505 37,975 300 393 0
2019-03-17 10:39:50 GMT 47.053093 8.017414 37,975 300 393 0
2019-03-17 10:39:47 GMT 47.049820 8.025513 37,975 300 394 0
2019-03-17 10:39:44 GMT 47.046436 8.034668 37,975 300 394 0
2019-03-17 10:39:41 GMT 47.043736 8.041640 37,975 300 394 0
2019-03-17 10:39:38 GMT 47.041397 8.048172 37,975 299 394 0
2019-03-17 10:39:35 GMT 47.038708 8.055091 37,975 299 395 -64
2019-03-17 10:39:32 GMT 47.036407 8.060806 37,975 299 395 -64
2019-03-17 10:39:29 GMT 47.030796 8.075655 38,000 300 394 0
2019-03-17 10:39:25 GMT 47.030796 8.075655 38,000 300 394 0
2019-03-17 10:39:22 GMT 47.027817 8.083543 37,975 300 395 0
2019-03-17 10:39:19 GMT 47.025238 8.090744 38,000 300 395 64
2019-03-17 10:39:15 GMT 47.018970 8.106854 37,975 300 395 0
2019-03-17 10:39:12 GMT 47.015991 8.115051 37,975 300 395 0
2019-03-17 10:39:06 GMT 47.013153 8.121643 37,975 300 396 0
2019-03-17 10:39:00 GMT 47.008541 8.133827 37,975 300 397 -128
2019-03-17 10:38:57 GMT 47.004868 8.143547 38,025 300 397 -64
2019-03-17 10:38:54 GMT 47.002632 8.149391 38,000 300 397 -128
2019-03-17 10:38:51 GMT 46.999329 8.158379 38,025 300 396 0
2019-03-17 10:38:48 GMT 46.994297 8.170870 38,025 300 396 0
2019-03-17 10:38:45 GMT 46.994297 8.170870 38,025 300 396 0
2019-03-17 10:38:42 GMT 46.992062 8.177279 38,025 300 396 128
2019-03-17 10:38:39 GMT 46.985825 8.192984 38,000 300 398 64
2019-03-17 10:38:36 GMT 46.985825 8.192984 37,975 300 399 0
2019-03-17 10:38:33 GMT 46.983730 8.198970 37,975 300 400 0
2019-03-17 10:38:30 GMT 46.981216 8.205379 37,975 300 401 0
2019-03-17 10:38:27 GMT 46.978657 8.211928 37,975 300 402 -64
2019-03-17 10:38:24 GMT 46.975025 8.221717 37,975 300 402 -64
2019-03-17 10:38:21 GMT 46.973602 8.225258 38,000 300 402 -64
2019-03-17 10:38:18 GMT 46.967651 8.240158 38,000 300 402 0
2019-03-17 10:38:15 GMT 46.967651 8.240158 38,000 300 402 64
2019-03-17 10:38:12 GMT 46.964127 8.249634 38,000 300 402 64
2019-03-17 10:38:09 GMT 46.961433 8.256507 38,000 300 402 64
2019-03-17 10:38:06 GMT 46.957947 8.265770 38,000 300 402 0
2019-03-17 10:38:03 GMT 46.955887 8.271194 37,975 300 401 0
2019-03-17 10:37:59 GMT 46.952168 8.280734 37,975 300 401 0
2019-03-17 10:37:56 GMT 46.950531 8.284721 37,975 300 401 0
2019-03-17 10:37:53 GMT 46.947281 8.293058 37,975 300 401 0
2019-03-17 10:37:50 GMT 46.943756 8.302299 37,975 300 401 0
2019-03-17 10:37:47 GMT 46.941742 8.307793 37,975 300 401 0
2019-03-17 10:37:44 GMT 46.936707 8.321114 38,000 300 401 0
2019-03-17 10:37:41 GMT 46.932861 8.330864 38,000 300 400 0
2019-03-17 10:37:38 GMT 46.932861 8.330864 38,000 300 400 64
2019-03-17 10:37:35 GMT 46.930893 8.335739 37,975 300 400 64
2019-03-17 10:37:31 GMT 46.926865 8.346313 37,975 300 399 0
2019-03-17 10:37:28 GMT 46.924469 8.352356 37,975 300 399 0
2019-03-17 10:37:25 GMT 46.922050 8.358483 37,975 300 399 -64
2019-03-17 10:37:22 GMT 46.919304 8.366018 37,975 300 399 0
2019-03-17 10:37:19 GMT 46.914551 8.377899 38,000 300 395 64
2019-03-17 10:37:15 GMT 46.912994 8.382568 38,000 300 397 256
2019-03-17 10:37:11 GMT 46.909653 8.390808 37,975 300 396 256
2019-03-17 10:37:08 GMT 46.906769 8.397881 37,975 300 395 192
2019-03-17 10:37:05 GMT 46.903755 8.406090 37,950 300 395 0
2019-03-17 10:37:01 GMT 46.900223 8.415596 37,950 300 395 0
2019-03-17 10:36:57 GMT 46.896538 8.425457 37,925 300 394 0
2019-03-17 10:36:54 GMT 46.894135 8.430908 37,925 300 394 0
2019-03-17 10:36:51 GMT 46.891342 8.438805 37,925 300 394 0
2019-03-17 10:36:48 GMT 46.888733 8.444984 37,925 300 393 -64
2019-03-17 10:36:45 GMT 46.885803 8.452744 37,925 300 393 -64
2019-03-17 10:36:42 GMT 46.883179 8.459895 37,950 300 393 -128
2019-03-17 10:36:39 GMT 46.881268 8.464473 37,950 300 391 -64
2019-03-17 10:36:36 GMT 46.877544 8.474121 37,950 300 392 -64
2019-03-17 10:36:33 GMT 46.875263 8.479685 37,950 300 391 -64
2019-03-17 10:36:29 GMT 46.871727 8.488981 37,950 300 391 0
2019-03-17 10:36:26 GMT 46.869770 8.494333 37,950 300 390 0
2019-03-17 10:36:23 GMT 46.866512 8.502182 37,950 300 390 0
2019-03-17 10:36:20 GMT 46.862549 8.512529 37,950 300 390 0
2019-03-17 10:36:17 GMT 46.861019 8.516808 37,950 300 390 0
2019-03-17 10:36:14 GMT 46.858086 8.524155 37,950 300 390 -64
2019-03-17 10:36:11 GMT 46.855247 8.531914 37,950 300 390 -64
2019-03-17 10:36:07 GMT 46.852570 8.538119 37,950 300 390 -128
2019-03-17 10:36:04 GMT 46.849457 8.546358 37,950 300 390 -128
2019-03-17 10:36:01 GMT 46.847099 8.551895 37,975 300 390 -128
2019-03-17 10:35:58 GMT 46.843781 8.560962 37,950 300 389 -64
2019-03-17 10:35:55 GMT 46.838905 8.573456 37,975 300 389 -64
2019-03-17 10:35:52 GMT 46.838905 8.573456 37,975 300 389 -64
2019-03-17 10:35:49 GMT 46.836273 8.580255 37,975 300 389 0
2019-03-17 10:35:46 GMT 46.832527 8.589867 37,975 300 389 0
2019-03-17 10:35:43 GMT 46.831131 8.593781 37,975 300 389 0
2019-03-17 10:35:40 GMT 46.828014 8.602432 37,975 300 389 -64
2019-03-17 10:35:37 GMT 46.825378 8.608391 37,975 300 389 0
2019-03-17 10:35:34 GMT 46.820618 8.621253 38,000 300 389 0
2019-03-17 10:35:31 GMT 46.820618 8.621253 38,000 300 389 0
2019-03-17 10:35:28 GMT 46.817093 8.629828 38,000 300 389 0
2019-03-17 10:35:25 GMT 46.814438 8.637264 38,000 300 389 0
2019-03-17 10:35:21 GMT 46.811554 8.644097 38,000 300 389 0
2019-03-17 10:35:18 GMT 46.809631 8.649389 38,000 300 390 0
2019-03-17 10:35:14 GMT 46.802689 8.666702 38,000 300 390 0
2019-03-17 10:35:11 GMT 46.802689 8.666702 38,000 300 391 -64
2019-03-17 10:35:08 GMT 46.798965 8.676247 38,000 300 391 -64
2019-03-17 10:35:05 GMT 46.797272 8.681008 38,000 300 391 -64
2019-03-17 10:35:02 GMT 46.793793 8.689315 38,000 300 391 0
2019-03-17 10:34:59 GMT 46.791779 8.695076 38,000 300 391 0
2019-03-17 10:34:56 GMT 46.788769 8.702133 38,000 300 391 0
2019-03-17 10:34:53 GMT 46.786240 8.708742 38,000 300 391 0
2019-03-17 10:34:50 GMT 46.782951 8.717651 38,000 300 391 0
2019-03-17 10:34:47 GMT 46.780792 8.722609 38,000 300 390 0
2019-03-17 10:34:44 GMT 46.779099 8.727566 38,000 300 390 0
2019-03-17 10:34:41 GMT 46.775482 8.736342 38,000 300 390 0
2019-03-17 10:34:38 GMT 46.770630 8.749003 37,975 300 391 -64
2019-03-17 10:34:35 GMT 46.770630 8.749003 37,975 300 391 -64
2019-03-17 10:34:32 GMT 46.767883 8.755300 37,975 300 391 -64
2019-03-17 10:34:29 GMT 46.764889 8.763451 38,000 300 391 -64
2019-03-17 10:34:26 GMT 46.762329 8.770180 38,000 300 390 0
2019-03-17 10:34:23 GMT 46.760235 8.775330 38,000 300 390 0
2019-03-17 10:34:20 GMT 46.757538 8.782966 38,000 300 389 0
2019-03-17 10:34:17 GMT 46.753876 8.791608 38,000 300 389 0
2019-03-17 10:34:14 GMT 46.749199 8.803413 38,000 300 389 0
2019-03-17 10:34:11 GMT 46.746964 8.809360 38,000 300 389 0
2019-03-17 10:34:08 GMT 46.742962 8.819550 37,975 300 389 0
2019-03-17 10:34:05 GMT 46.742962 8.819550 37,975 300 389 0
2019-03-17 10:34:01 GMT 46.739563 8.828682 37,975 300 390 0
2019-03-17 10:33:58 GMT 46.737030 8.834147 37,975 300 390 0
2019-03-17 10:33:54 GMT 46.733734 8.842788 37,975 300 390 0
2019-03-17 10:33:51 GMT 46.730988 8.850023 37,975 300 390 -64
2019-03-17 10:33:48 GMT 46.727692 8.858070 37,975 300 389 -64
2019-03-17 10:33:44 GMT 46.724808 8.866168 38,000 300 389 -64
2019-03-17 10:33:41 GMT 46.721596 8.874001 38,000 300 387 0
2019-03-17 10:33:35 GMT 46.716148 8.888008 38,000 300 388 0
2019-03-17 10:33:31 GMT 46.713364 8.894504 38,000 300 387 0
2019-03-17 10:33:28 GMT 46.710842 8.901604 38,000 300 387 -64
2019-03-17 10:33:24 GMT 46.706604 8.912453 38,000 300 388 -128
2019-03-17 10:33:21 GMT 46.704437 8.917281 38,000 300 388 -128
2019-03-17 10:33:18 GMT 46.702286 8.923310 38,000 300 387 -128
2019-03-17 10:33:15 GMT 46.698944 8.931215 38,000 300 387 128
2019-03-17 10:33:12 GMT 46.695946 8.938889 38,000 300 387 192
2019-03-17 10:33:09 GMT 46.693130 8.946020 38,000 300 387 192
2019-03-17 10:33:05 GMT 46.689892 8.953857 37,975 300 388 128
2019-03-17 10:33:02 GMT 46.687054 8.961823 37,950 300 388 64
2019-03-17 10:32:59 GMT 46.684341 8.968260 37,950 300 390 0
2019-03-17 10:32:56 GMT 46.679745 8.980362 37,975 300 390 448
2019-03-17 10:32:50 GMT 46.674683 8.993247 37,950 300 391 0
2019-03-17 10:32:47 GMT 46.671112 9.002358 37,975 300 390 320
2019-03-17 10:32:44 GMT 46.671112 9.002358 37,975 300 390 448
2019-03-17 10:32:40 GMT 46.667782 9.010162 37,925 300 389 768
2019-03-17 10:32:37 GMT 46.665665 9.016158 37,875 300 389 832
2019-03-17 10:32:34 GMT 46.663124 9.023003 37,850 300 389 832
2019-03-17 10:32:31 GMT 46.659309 9.031860 37,800 300 390 896
2019-03-17 10:32:28 GMT 46.656235 9.039482 37,750 300 390 960
2019-03-17 10:32:25 GMT 46.653488 9.046504 37,700 300 390 1024
2019-03-17 10:32:22 GMT 46.651886 9.050859 37,600 301 391 1152
2019-03-17 10:32:19 GMT 46.648323 9.059875 37,575 300 391 1088
2019-03-17 10:32:16 GMT 46.646366 9.064133 37,550 301 391 1088
2019-03-17 10:32:13 GMT 46.643509 9.071692 37,425 301 391 1152
2019-03-17 10:32:09 GMT 46.639755 9.080803 37,400 301 391 1088
2019-03-17 10:32:06 GMT 46.637054 9.088028 37,200 301 392 896
2019-03-17 10:32:02 GMT 46.632774 9.098740 37,275 301 392 960
2019-03-17 10:31:59 GMT 46.630585 9.104027 37,225 301 392 896
2019-03-17 10:31:56 GMT 46.627651 9.111099 37,150 301 392 960
2019-03-17 10:31:53 GMT 46.625233 9.117485 37,100 301 392 960
2019-03-17 10:31:50 GMT 46.621788 9.125587 37,075 301 392 1024
2019-03-17 10:31:47 GMT 46.618713 9.133415 36,975 301 393 1216
2019-03-17 10:31:44 GMT 46.617271 9.137672 36,925 305 399 512
2019-03-17 10:31:41 GMT 46.614304 9.145247 36,875 300 394 1344
2019-03-17 10:31:38 GMT 46.611374 9.152147 36,800 300 394 1344
2019-03-17 10:31:34 GMT 46.608032 9.160655 36,675 305 399 512
2019-03-17 10:31:31 GMT 46.604145 9.170013 36,625 302 397 896
2019-03-17 10:31:27 GMT 46.601768 9.176056 33,600 311 418 1344
2019-03-17 10:31:24 GMT 46.594135 9.192467 36,525 304 400 512
2019-03-17 10:31:20 GMT 46.594135 9.192467 36,500 305 399 512
2019-03-17 10:31:17 GMT 46.591324 9.198370 36,475 306 400 448
2019-03-17 10:31:14 GMT 46.588531 9.204131 36,450 307 401 448
2019-03-17 10:31:11 GMT 46.584137 9.212706 36,400 309 401 576
2019-03-17 10:31:08 GMT 46.580914 9.218422 36,400 309 401 640
2019-03-17 10:31:05 GMT 46.577515 9.224808 36,350 310 402 768
2019-03-17 10:31:02 GMT 46.574444 9.230232 36,325 310 403 960
2019-03-17 10:30:59 GMT 46.571182 9.235818 36,275 311 404 1344
2019-03-17 10:30:56 GMT 46.567459 9.242180 36,250 311 404 1408
2019-03-17 10:30:53 GMT 46.562618 9.250214 36,075 311 405 1472
2019-03-17 10:30:50 GMT 46.559097 9.256517 36,025 311 405 1408
2019-03-17 10:30:47 GMT 46.555252 9.263149 35,975 311 405 1408
2019-03-17 10:30:44 GMT 46.546791 9.277473 35,800 311 407 1088
2019-03-17 10:30:40 GMT 46.546791 9.277473 35,800 311 407 1024
2019-03-17 10:30:37 GMT 46.542973 9.284134 35,775 311 407 1024
2019-03-17 10:30:34 GMT 46.539871 9.289275 35,750 311 407 1024
2019-03-17 10:30:31 GMT 46.531616 9.303223 35,600 311 407 1280
2019-03-17 10:30:28 GMT 46.531616 9.303223 35,550 311 408 1344
2019-03-17 10:30:24 GMT 46.528290 9.309305 35,525 311 408 1344
2019-03-17 10:30:21 GMT 46.523163 9.317545 35,400 311 409 1344
2019-03-17 10:30:18 GMT 46.518486 9.325745 35,300 311 410 1408
2019-03-17 10:30:15 GMT 46.517303 9.327527 34,400 311 410 1344
2019-03-17 10:30:12 GMT 46.508293 9.342636 35,150 311 410 1344
2019-03-17 10:30:09 GMT 46.508293 9.342636 35,100 311 410 1344
2019-03-17 10:30:06 GMT 46.506012 9.347099 34,750 311 410 1280
2019-03-17 10:30:03 GMT 46.502239 9.353073 34,975 311 410 1216
2019-03-17 10:30:00 GMT 46.498611 9.359665 34,925 311 410 1152
2019-03-17 10:29:57 GMT 46.493454 9.368256 34,825 311 410 1152
2019-03-17 10:29:53 GMT 46.489929 9.374285 34,775 311 410 1344
2019-03-17 10:29:50 GMT 46.486038 9.380783 34,650 311 410 1344
2019-03-17 10:29:47 GMT 46.483620 9.384933 34,575 311 411 1344
2019-03-17 10:29:44 GMT 46.479568 9.391869 34,575 311 411 1344
2019-03-17 10:29:41 GMT 46.474594 9.400478 34,450 311 412 1472
2019-03-17 10:29:38 GMT 46.471436 9.405637 34,400 311 412 1472
2019-03-17 10:29:35 GMT 46.466995 9.413006 34,325 311 412 1536
2019-03-17 10:29:31 GMT 46.462906 9.419952 34,225 311 413 1600
2019-03-17 10:29:28 GMT 46.459808 9.425399 34,125 311 413 1600
2019-03-17 10:29:25 GMT 46.455875 9.431969 34,050 311 414 1600
2019-03-17 10:29:22 GMT 46.451385 9.439266 33,950 311 415 1472
2019-03-17 10:29:18 GMT 46.445755 9.448979 33,850 311 415 1472
2019-03-17 10:29:15 GMT 46.442562 9.454285 33,800 311 415 1472
2019-03-17 10:29:11 GMT 46.438110 9.461640 33,600 311 418 1344
2019-03-17 10:29:08 GMT 46.433159 9.470558 33,600 311 417 1408
2019-03-17 10:29:05 GMT 46.429249 9.476944 33,525 311 417 1408
2019-03-17 10:29:02 GMT 46.427536 9.479995 33,500 311 417 1408
2019-03-17 10:28:58 GMT 46.421402 9.490111 33,325 311 418 1344
2019-03-17 10:28:55 GMT 46.417648 9.496475 33,325 311 421 960
2019-03-17 10:28:52 GMT 46.413326 9.503792 33,225 311 418 1600
2019-03-17 10:28:48 GMT 46.409321 9.510658 33,100 311 419 1792
2019-03-17 10:28:42 GMT 46.401733 9.523499 32,925 311 420 1792
2019-03-17 10:28:39 GMT 46.392517 9.539080 32,775 311 421 1728
2019-03-17 10:28:35 GMT 46.392517 9.539080 32,650 311 421 1600
2019-03-17 10:28:32 GMT 46.388699 9.545265 32,625 311 422 1472
2019-03-17 10:28:28 GMT 46.382370 9.555908 32,550 311 422 1280
2019-03-17 10:28:25 GMT 46.378189 9.563063 32,425 311 422 1024
2019-03-17 10:28:22 GMT 46.375618 9.567513 32,400 311 422 1024
2019-03-17 10:28:17 GMT 46.368347 9.579810 32,250 311 421 896
2019-03-17 10:28:14 GMT 46.365749 9.584198 32,225 311 421 960
2019-03-17 10:28:11 GMT 46.355648 9.601227 32,125 311 419 960
2019-03-17 10:28:06 GMT 46.355648 9.601227 32,000 311 419 1344
2019-03-17 10:28:03 GMT 46.352715 9.606033 32,000 311 419 1344
2019-03-17 10:28:00 GMT 46.348946 9.612419 32,050 311 419 1024
2019-03-17 10:27:57 GMT 46.344131 9.620607 30,825 311 416 1408
2019-03-17 10:27:54 GMT 46.341293 9.625229 31,950 311 419 1216
2019-03-17 10:27:51 GMT 46.336281 9.634117 31,850 311 419 1344
2019-03-17 10:27:47 GMT 46.331627 9.641670 31,750 311 418 1408
2019-03-17 10:27:44 GMT 46.327057 9.648944 31,700 311 419 1408
2019-03-17 10:27:40 GMT 46.323387 9.655128 30,500 311 416 1472
2019-03-17 10:27:36 GMT 46.318314 9.663918 31,525 311 419 1408
2019-03-17 10:27:33 GMT 46.314869 9.669823 31,450 311 419 1280
2019-03-17 10:27:30 GMT 46.310577 9.676878 31,325 311 419 1088
2019-03-17 10:27:24 GMT 46.301739 9.691658 31,200 311 419 1088
2019-03-17 10:27:20 GMT 46.297852 9.698248 31,125 311 417 1152
2019-03-17 10:27:16 GMT 46.293034 9.706352 31,075 311 417 1152
2019-03-17 10:27:13 GMT 46.284439 9.720891 30,950 311 416 1152
2019-03-17 10:27:09 GMT 46.284439 9.720891 30,925 311 416 1408
2019-03-17 10:27:04 GMT 46.273438 9.739105 30,775 311 416 1280
2019-03-17 10:26:57 GMT 46.267944 9.747826 30,700 311 417 1216
2019-03-17 10:26:54 GMT 46.265148 9.753250 30,600 311 417 1216
2019-03-17 10:26:50 GMT 46.260307 9.761284 30,525 311 416 1216
2019-03-17 10:26:47 GMT 46.256470 9.767650 30,350 311 416 1472
2019-03-17 10:26:43 GMT 46.250023 9.778450 30,300 311 416 1536
2019-03-17 10:26:39 GMT 46.244751 9.787077 30,175 311 416 1472
2019-03-17 10:26:33 GMT 46.238571 9.797594 30,050 311 416 1216
2019-03-17 10:26:30 GMT 46.234772 9.803623 29,975 311 415 1152
2019-03-17 10:26:27 GMT 46.231213 9.809761 29,950 311 415 1152
2019-03-17 10:26:22 GMT 46.224743 9.820404 29,850 311 414 1216
2019-03-17 10:26:19 GMT 46.222046 9.824993 29,825 311 414 1216
2019-03-17 10:26:16 GMT 46.217514 9.832697 29,725 311 414 1216
2019-03-17 10:26:11 GMT 46.210358 9.844505 29,625 311 414 1216
2019-03-17 10:26:08 GMT 46.207005 9.849998 29,575 311 413 1216
2019-03-17 10:26:04 GMT 46.202545 9.857215 29,475 311 409 1152
2019-03-17 10:26:01 GMT 46.198719 9.863594 29,425 311 411 1152
2019-03-17 10:25:57 GMT 46.194260 9.871283 29,350 311 411 1152
2019-03-17 10:25:54 GMT 46.189316 9.879523 29,275 311 409 1152
2019-03-17 10:25:51 GMT 46.182335 9.890923 29,150 311 409 1152
2019-03-17 10:25:48 GMT 46.179543 9.895866 29,150 311 409 1152
2019-03-17 10:25:38 GMT 46.170090 9.911453 28,975 311 406 1088
2019-03-17 10:25:35 GMT 46.166245 9.917841 28,900 311 405 1152
2019-03-17 10:25:28 GMT 46.158684 9.930267 28,800 311 405 1152
2019-03-17 10:25:25 GMT 46.153889 9.938370 28,650 311 404 1088
2019-03-17 10:25:18 GMT 46.146423 9.950800 28,600 311 403 1152
2019-03-17 10:25:13 GMT 46.139507 9.962540 28,500 311 402 1216
2019-03-17 10:25:08 GMT 46.130310 9.977529 28,175 311 399 1536
2019-03-17 10:25:05 GMT 46.130310 9.977529 28,300 311 400 1408
2019-03-17 10:24:57 GMT 46.120838 9.993507 28,025 311 399 1664
2019-03-17 10:24:54 GMT 46.117310 9.999367 28,000 311 399 1728
2019-03-17 10:24:49 GMT 46.110443 10.010421 27,875 311 399 1920
2019-03-17 10:24:46 GMT 46.107056 10.016450 27,600 312 400 1984
2019-03-17 10:24:43 GMT 46.102867 10.023102 27,675 312 400 2048
2019-03-17 10:24:37 GMT 46.095612 10.035006 27,500 311 401 1984
2019-03-17 10:24:34 GMT 46.092453 10.040767 27,100 311 402 2048
2019-03-17 10:24:26 GMT 46.082840 10.056577 27,000 312 403 1856
2019-03-17 10:24:23 GMT 46.078987 10.062653 26,875 312 403 1920
2019-03-17 10:24:15 GMT 46.068100 10.080626 26,700 311 402 1472
2019-03-17 10:24:11 GMT 46.063293 10.088598 26,575 311 402 1408
2019-03-17 10:24:05 GMT 46.056549 10.099800 26,450 311 400 1216
2019-03-17 10:24:01 GMT 46.052582 10.106417 26,375 311 399 1216
2019-03-17 10:23:55 GMT 46.044846 10.119078 26,250 312 396 1408
2019-03-17 10:23:52 GMT 46.041229 10.125174 26,075 312 396 1472
2019-03-17 10:23:44 GMT 46.031040 10.142029 25,800 311 394 2048
2019-03-17 10:23:40 GMT 46.027313 10.148219 25,875 311 394 2048
2019-03-17 10:23:33 GMT 46.018795 10.162148 25,650 312 395 2048
2019-03-17 10:23:30 GMT 46.005810 10.183571 24,500 312 395 2240
2019-03-17 10:23:22 GMT 46.005810 10.183571 25,250 312 396 1856
2019-03-17 10:23:19 GMT 46.002090 10.189752 25,150 312 396 1792
2019-03-17 10:23:13 GMT 45.993984 10.203003 24,950 312 395 1984
2019-03-17 10:23:10 GMT 45.990864 10.208084 24,700 312 395 2304
2019-03-17 10:23:03 GMT 45.981628 10.223314 24,575 312 395 2304
2019-03-17 10:23:00 GMT 45.977646 10.229851 24,450 312 395 2240
2019-03-17 10:22:52 GMT 45.969219 10.243652 24,125 312 395 1536
2019-03-17 10:22:49 GMT 45.964279 10.251718 24,075 312 394 1536
2019-03-17 10:22:41 GMT 45.955299 10.266586 23,900 312 393 1536
2019-03-17 10:22:38 GMT 45.953064 10.270207 23,900 312 392 1600
2019-03-17 10:22:31 GMT 45.944450 10.284027 23,625 312 390 1792
2019-03-17 10:22:28 GMT 45.940540 10.290619 23,550 312 390 1920
2019-03-17 10:22:25 GMT 45.936726 10.296936 23,450 312 389 1920
2019-03-17 10:22:21 GMT 45.931229 10.306047 23,300 312 389 1984
2019-03-17 10:22:17 GMT 45.927841 10.311607 23,200 312 388 1984
2019-03-17 10:22:10 GMT 45.918755 10.326530 22,925 312 387 2048
2019-03-17 10:22:07 GMT 45.915390 10.332173 22,850 312 387 2048
2019-03-17 10:22:03 GMT 45.911728 10.337929 22,750 312 386 1984
2019-03-17 10:21:59 GMT 45.905113 10.348503 22,500 312 385 1728
2019-03-17 10:21:52 GMT 45.897991 10.360451 22,375 312 384 1664
2019-03-17 10:21:49 GMT 45.894287 10.366538 22,300 312 384 1600
2019-03-17 10:21:46 GMT 45.890636 10.372261 22,200 312 381 1536
2019-03-17 10:21:41 GMT 45.884445 10.382492 22,050 312 380 1472
2019-03-17 10:21:38 GMT 45.880955 10.388191 21,975 312 379 1472
2019-03-17 10:21:35 GMT 45.878082 10.392932 21,875 312 378 1408
2019-03-17 10:21:32 GMT 45.874996 10.397942 21,850 312 377 1536
2019-03-17 10:21:28 GMT 45.869843 10.406397 21,575 312 374 2240
2019-03-17 10:21:24 GMT 45.866291 10.412224 21,650 312 374 2112
2019-03-17 10:21:21 GMT 45.862747 10.417853 21,450 312 374 2432
2019-03-17 10:21:18 GMT 45.857712 10.426092 21,250 312 374 2560
2019-03-17 10:21:15 GMT 45.853626 10.432755 21,200 312 374 2624
2019-03-17 10:21:12 GMT 45.851582 10.436256 21,050 312 374 2688
2019-03-17 10:21:09 GMT 45.848785 10.440582 21,025 312 375 2624
2019-03-17 10:21:06 GMT 45.845715 10.445526 20,850 312 375 2624
2019-03-17 10:21:03 GMT 45.841431 10.452187 20,750 312 375 2560
2019-03-17 10:21:00 GMT 45.836929 10.459453 20,575 312 375 2368
2019-03-17 10:20:55 GMT 45.831886 10.467430 20,250 312 373 1984
2019-03-17 10:20:52 GMT 45.829189 10.472305 20,300 312 374 2048
2019-03-17 10:20:49 GMT 45.825073 10.478813 20,225 312 374 2048
2019-03-17 10:20:46 GMT 45.818481 10.488716 19,750 312 371 1856
2019-03-17 10:20:39 GMT 45.813583 10.497169 19,850 312 371 1856
2019-03-17 10:20:34 GMT 45.808239 10.505745 19,750 312 369 1984
2019-03-17 10:20:28 GMT 45.797699 10.522223 19,450 312 367 2752
2019-03-17 10:20:25 GMT 45.797699 10.522223 19,200 313 368 2688
2019-03-17 10:20:21 GMT 45.793762 10.528654 19,175 314 369 2368
2019-03-17 10:20:17 GMT 45.788223 10.536507 19,025 317 372 2176
2019-03-17 10:20:14 GMT 45.783325 10.542521 18,925 320 374 1984
2019-03-17 10:20:11 GMT 45.780167 10.546071 18,775 325 377 1792
2019-03-17 10:20:07 GMT 45.775097 10.550995 18,675 329 379 1728
2019-03-17 10:20:04 GMT 45.769650 10.555801 18,575 334 380 1664
2019-03-17 10:19:59 GMT 45.761902 10.561546 18,450 334 380 1792
2019-03-17 10:19:56 GMT 45.757782 10.564627 18,350 334 378 1856
2019-03-17 10:19:53 GMT 45.753845 10.567374 18,275 334 377 2048
2019-03-17 10:19:45 GMT 45.739792 10.577355 17,550 334 376 2624
2019-03-17 10:19:42 GMT 45.736496 10.579700 17,800 334 376 2752
2019-03-17 10:19:37 GMT 45.727707 10.585997 17,525 334 376 2624
2019-03-17 10:19:33 GMT 45.720394 10.591164 17,325 334 374 2496
2019-03-17 10:19:27 GMT 45.713425 10.596113 17,125 334 373 2624
2019-03-17 10:19:23 GMT 45.706615 10.600914 16,950 334 373 2688
2019-03-17 10:19:19 GMT 45.699738 10.605759 16,750 334 368 2112
2019-03-17 10:19:15 GMT 45.693466 10.609979 15,325 334 371 2368
2019-03-17 10:19:11 GMT 45.681610 10.618621 16,275 334 369 2240
2019-03-17 10:19:07 GMT 45.681610 10.618621 16,275 334 368 2240
2019-03-17 10:19:02 GMT 45.673752 10.624123 15,500 334 358 2240
2019-03-17 10:18:57 GMT 45.667233 10.628792 15,925 334 365 1856
2019-03-17 10:18:53 GMT 45.659924 10.633804 15,775 334 361 1920
2019-03-17 10:18:49 GMT 45.653000 10.638450 15,650 334 358 2240
2019-03-17 10:18:45 GMT 45.648380 10.641632 15,525 334 357 2304
2019-03-17 10:18:42 GMT 45.644005 10.644859 15,450 334 356 2240
2019-03-17 10:18:39 GMT 45.638580 10.648700 15,275 334 354 2240
2019-03-17 10:18:36 GMT 45.634781 10.651379 15,100 334 351 2176
2019-03-17 10:18:32 GMT 45.628922 10.655465 14,925 337 347 1472
2019-03-17 10:18:29 GMT 45.625057 10.658386 14,925 335 349 2048
2019-03-17 10:18:26 GMT 45.619949 10.661763 14,800 335 348 1984
2019-03-17 10:18:23 GMT 45.617020 10.663705 14,750 336 348 1664
2019-03-17 10:18:20 GMT 45.611324 10.667381 14,650 341 348 1152
2019-03-17 10:18:15 GMT 45.604156 10.670677 14,575 344 347 1216
2019-03-17 10:18:11 GMT 45.598614 10.672531 14,425 355 348 1216
2019-03-17 10:18:07 GMT 45.591587 10.673904 14,350 357 348 1280
2019-03-17 10:18:04 GMT 45.586945 10.674089 14,275 0 348 1408
2019-03-17 10:18:00 GMT 45.581223 10.674357 14,250 0 347 1472
2019-03-17 10:17:57 GMT 45.575245 10.674248 14,150 1 343 1472
2019-03-17 10:17:54 GMT 45.570728 10.673973 14,025 1 338 1472
2019-03-17 10:17:51 GMT 45.561420 10.673698 13,900 1 324 1472
2019-03-17 10:17:45 GMT 45.557281 10.673486 13,825 1 329 1472
2019-03-17 10:17:42 GMT 45.551926 10.673151 13,800 1 327 1408
2019-03-17 10:17:39 GMT 45.548386 10.673012 13,725 1 324 1408
2019-03-17 10:17:36 GMT 45.542496 10.672695 13,650 1 320 1536
2019-03-17 10:17:33 GMT 45.539402 10.672749 13,575 1 317 1600
2019-03-17 10:17:29 GMT 45.533203 10.672564 13,475 1 307 3456
2019-03-17 10:17:26 GMT 45.528122 10.672237 13,350 1 310 2560
2019-03-17 10:17:23 GMT 45.525101 10.672041 13,275 2 309 2944
2019-03-17 10:17:19 GMT 45.513702 10.671409 12,875 2 307 3328
2019-03-17 10:17:16 GMT 45.513702 10.671409 12,850 2 307 3456
2019-03-17 10:17:12 GMT 45.509399 10.671256 12,675 2 307 3456
2019-03-17 10:17:09 GMT 45.504349 10.670873 12,475 2 307 3520
2019-03-17 10:17:05 GMT 45.498623 10.670806 12,300 2 307 3456

Making use of Plane Finder data

You are free to use the raw flight data, aircraft information and images provided in this report for your own purposes provided the data is correctly attributed to Plane Finder. We ask that you please credit Plane Finder and link to planefinder.net in close proximity to the content.

Optionally one of the following logos (no smaller then 150x24px) can be used and must link to planefinder.net

Embedding the Plane Finder map

You are welcome to embed the Plane Finder playback map on your website to offer visitors a more interactive experience. We suggest using the following HTML code:

<iframe src="//planefinder.net/data/report/BA2597-G-DBCE-7700-squawk-2019-03-17/map" width="800" height="600" seamless="seamless"></iframe>

Where our data comes from

Plane Finder has a global network of data feeds and antenna radars that receive data broadcast directly from aircraft. The primary technologies used are ADS-B and MLAT. We also show feeds from the FAA and a FLARM glider feed.

Click here to find out more about the Plane Finder network.

How we collect our data